NOAA Web Site Link Tides and Currents Home Page Transparent placeholder image

Notice: We are experiencing a wide spread communication outage affecting the availability of water level and meteorological data for some of our stations, as well as several critical bridge clearance measurements. We are diligently working to resolve this data outage. Please direct all questions to tide.predictions@noaa.gov or call (301) 713-2815.

PORTS® Data Listing: 8639348 Money Point, VA

CO-OPS RAW PORTS DATA

************************      PRELIMINARY DATA      ************************** 

     THIS RAW DATA HAS NOT BEEN SUBJECT TO THE NATIONAL OCEAN SERVICE'S        
     QUALITY CONTROL OR QUALITY ASSURANCE PROCEDURES AND DOES NOT MEET         
     THE CRITERIA AND STANDARDS OF OFFICIAL NATIONAL OCEAN SERVICE             
     DATA.  IT IS RELEASED FOR LIMITED PUBLIC USE AS PRELIMINARY DATA TO       
     BE USED ONLY WITH APPROPRIATE CAUTION.                                    

************************      PRELIMINARY DATA      ************************** 


       CD   -   Calendar date
       T    -   Time
       TZ   -   Timezone
       PW   -   Predicted water level (feet above MLLW)
       OW   -   Observed water level (feet above MLLW)
       WS   -   Wind speed (knots)
       WD   -   Wind direction (degrees true)
       WG   -   Wind gust (knots)
       AT   -   Air temperature (degrees farenheit)
       WT   -   Water temperature (degrees farenheit)
       AP   -   Air pressure (millibars)
       SA   -   Salinty (PSU - Practical Salinity Units)
       SG   -   Specific gravity
       RH   -   Relative humidity
       AG   -   Air gap (feet)
       VI   -   Visibility (nautical miles)

       ** NOTE **
       A variable that has its data fields filled with "9"s, indicates that
       data was not collected for that sample period.
       **********


STATION NAME: Money Point (8639348)
****************************************************************************************************
    CD       T    TZ    PW     OW    WS   WD   WG    AT    WT    AP    SA    SG     RH    AG   VI
****************************************************************************************************
2019/04/15 13:06 EDT    0.15   0.69   15  300   23  67.8  66.2 1004.6 -9.9 -9.999 -99.9 -99.99 -9.99
2019/04/15 13:12 EDT    0.16   0.66   17  304   25  67.6  66.2 1004.5 -9.9 -9.999 -99.9 -99.99 -9.99
2019/04/15 13:18 EDT    0.18   0.64   18  289   28  67.3  66.4 1004.7 -9.9 -9.999 -99.9 -99.99 -9.99
2019/04/15 13:24 EDT    0.20   0.62   16  292   24  67.3  66.6 1004.6 -9.9 -9.999 -99.9 -99.99 -9.99
2019/04/15 13:30 EDT    0.23   0.62   13  311   24  67.8  66.7 1004.9 -9.9 -9.999 -99.9 -99.99 -9.99
2019/04/15 13:36 EDT    0.26   0.61   13  300   22  68.0  66.9 1005.0 -9.9 -9.999 -99.9 -99.99 -9.99
2019/04/15 13:42 EDT    0.29   0.62   16  313   27  66.9  66.9 1005.0 -9.9 -9.999 -99.9 -99.99 -9.99
2019/04/15 13:48 EDT    0.32   0.64   17  316   24  67.3  66.9 1005.1 -9.9 -9.999 -99.9 -99.99 -9.99
2019/04/15 13:54 EDT    0.36   0.69    9  299   22  67.5  67.1 1005.1 -9.9 -9.999 -99.9 -99.99 -9.99
2019/04/15 14:00 EDT    0.40   0.72   15  321   23  67.5  66.9 1005.1 -9.9 -9.999 -99.9 -99.99 -9.99
2019/04/15 14:06 EDT    0.45   0.77   16  318   23  67.5  66.6 1005.2 -9.9 -9.999 -99.9 -99.99 -9.99
2019/04/15 14:12 EDT    0.50   0.83   11  310   24  67.8  66.7 1005.4 -9.9 -9.999 -99.9 -99.99 -9.99
2019/04/15 14:18 EDT    0.55   0.87   12  312   21  68.0  66.7 1005.4 -9.9 -9.999 -99.9 -99.99 -9.99
2019/04/15 14:24 EDT    0.60   0.91   12  311   25  67.8  66.7 1005.5 -9.9 -9.999 -99.9 -99.99 -9.99
2019/04/15 14:30 EDT    0.65   0.97   20  314   26  67.1  66.6 1005.5 -9.9 -9.999 -99.9 -99.99 -9.99
2019/04/15 14:36 EDT    0.71   1.04   15  318   21  67.6  66.6 1005.6 -9.9 -9.999 -99.9 -99.99 -9.99
2019/04/15 14:42 EDT    0.77   1.08   13  313   19  67.6  66.6 1005.7 -9.9 -9.999 -99.9 -99.99 -9.99
2019/04/15 14:48 EDT    0.83   1.14   12  294   17  67.1  66.6 1005.5 -9.9 -9.999 -99.9 -99.99 -9.99
2019/04/15 14:54 EDT    0.89   1.19   11  311   21  68.4  66.6 1005.7 -9.9 -9.999 -99.9 -99.99 -9.99
2019/04/15 15:00 EDT    0.96   1.25   10  292   20  67.8  66.6 1005.7 -9.9 -9.999 -99.9 -99.99 -9.99
2019/04/15 15:06 EDT    1.02   1.32   12  260   15  67.6  66.4 1005.8 -9.9 -9.999 -99.9 -99.99 -9.99
2019/04/15 15:12 EDT    1.09   1.39   14  285   21  67.3  66.4 1005.7 -9.9 -9.999 -99.9 -99.99 -9.99
2019/04/15 15:18 EDT    1.16   1.48    9  298   17  68.2  66.4 1005.6 -9.9 -9.999 -99.9 -99.99 -9.99
2019/04/15 15:24 EDT    1.23   1.59   12  314   17  68.2  65.8 1005.7 -9.9 -9.999 -99.9 -99.99 -9.99
2019/04/15 15:30 EDT    1.30   1.68   14  280   20  67.6  65.3 1005.8 -9.9 -9.999 -99.9 -99.99 -9.99
2019/04/15 15:36 EDT    1.37   1.78   17  282   22  67.1  64.8 1005.9 -9.9 -9.999 -99.9 -99.99 -9.99
2019/04/15 15:42 EDT    1.45   1.87   14  287   22  67.6  64.6 1006.1 -9.9 -9.999 -99.9 -99.99 -9.99
2019/04/15 15:48 EDT    1.52   1.93   15  279   19  67.5  64.4 1006.0 -9.9 -9.999 -99.9 -99.99 -9.99
2019/04/15 15:54 EDT    1.59   1.98   13  318   22  67.8  64.4 1006.2 -9.9 -9.999 -99.9 -99.99 -9.99
2019/04/15 16:00 EDT    1.67   2.06   11  285   14  67.6  64.2 1006.1 -9.9 -9.999 -99.9 -99.99 -9.99
2019/04/15 16:06 EDT    1.74   2.15   12  289   22  67.5  64.2 1006.2 -9.9 -9.999 -99.9 -99.99 -9.99
2019/04/15 16:12 EDT    1.82   2.21   15  300   22  67.6  64.0 1006.4 -9.9 -9.999 -99.9 -99.99 -9.99
2019/04/15 16:18 EDT    1.89   2.28   15  293   24  67.3  63.9 1006.5 -9.9 -9.999 -99.9 -99.99 -9.99
2019/04/15 16:24 EDT    1.97   2.37   17  285   24  66.9  63.9 1006.5 -9.9 -9.999 -99.9 -99.99 -9.99
2019/04/15 16:30 EDT    2.04   2.44   14  277   20  67.5  63.7 1006.5 -9.9 -9.999 -99.9 -99.99 -9.99
2019/04/15 16:36 EDT    2.11   2.50   13  294   20  67.5  63.5 1006.7 -9.9 -9.999 -99.9 -99.99 -9.99
2019/04/15 16:42 EDT    2.19   2.54   16  274   22  67.3  63.5 1006.8 -9.9 -9.999 -99.9 -99.99 -9.99
2019/04/15 16:48 EDT    2.26   2.60   10  296   20  67.3  63.5 1007.0 -9.9 -9.999 -99.9 -99.99 -9.99
2019/04/15 16:54 EDT    2.33   2.66    9  310   17  67.6  63.5 1007.1 -9.9 -9.999 -99.9 -99.99 -9.99
2019/04/15 17:00 EDT    2.39   2.72   12  300   18  67.3  63.3 1007.2 -9.9 -9.999 -99.9 -99.99 -9.99
2019/04/15 17:06 EDT    2.46   2.77   15  284   18  67.1  63.3 1007.4 -9.9 -9.999 -99.9 -99.99 -9.99
2019/04/15 17:12 EDT    2.52   2.85   12  304   22  67.1  63.3 1007.6 -9.9 -9.999 -99.9 -99.99 -9.99
2019/04/15 17:18 EDT    2.58   2.92   12  286   24  66.9  63.3 1007.8 -9.9 -9.999 -99.9 -99.99 -9.99
2019/04/15 17:24 EDT    2.64   2.98   11  296   20  66.9  63.0 1008.0 -9.9 -9.999 -99.9 -99.99 -9.99
2019/04/15 17:30 EDT    2.70   3.05   15  295   21  66.7  62.8 1008.1 -9.9 -9.999 -99.9 -99.99 -9.99
2019/04/15 17:36 EDT    2.75   3.10   13  305   23  66.9  62.6 1008.3 -9.9 -9.999 -99.9 -99.99 -9.99
2019/04/15 17:42 EDT    2.80   3.18   11  302   20  66.9  62.4 1008.6 -9.9 -9.999 -99.9 -99.99 -9.99
2019/04/15 17:48 EDT    2.85   3.23    6  304   17  67.1  62.6 1008.7 -9.9 -9.999 -99.9 -99.99 -9.99
2019/04/15 17:54 EDT    2.89   3.27   11  312   13  67.1  62.6 1008.8 -9.9 -9.999 -99.9 -99.99 -9.99
2019/04/15 18:00 EDT    2.93   3.32   13  314   18  66.4  62.6 1009.1 -9.9 -9.999 -99.9 -99.99 -9.99
2019/04/15 18:06 EDT    2.97   3.38   11  320   18  66.4  62.6 1009.2 -9.9 -9.999 -99.9 -99.99 -9.99
2019/04/15 18:12 EDT    3.00   3.43   14  295   21  65.7  62.6 1009.4 -9.9 -9.999 -99.9 -99.99 -9.99
2019/04/15 18:18 EDT    3.03   3.47   11  311   19  65.8  62.6 1009.6 -9.9 -9.999 -99.9 -99.99 -9.99
2019/04/15 18:24 EDT    3.05   3.51    8  300   17  65.8  62.6 1009.7 -9.9 -9.999 -99.9 -99.99 -9.99
2019/04/15 18:30 EDT    3.07   3.56   10  302   17  65.7  62.6 1009.9 -9.9 -9.999 -99.9 -99.99 -9.99
2019/04/15 18:36 EDT    3.09   3.59   11  316   17  65.3  62.6 1010.1 -9.9 -9.999 -99.9 -99.99 -9.99
2019/04/15 18:42 EDT    3.10   3.61   13  304   23  65.1  62.6 1010.2 -9.9 -9.999 -99.9 -99.99 -9.99
2019/04/15 18:48 EDT    3.11   3.63   12  306   19  64.6  62.6 1010.5 -9.9 -9.999 -99.9 -99.99 -9.99
2019/04/15 18:54 EDT    3.11   3.65   13  305   22  64.4  62.6 1010.6 -9.9 -9.999 -99.9 -99.99 -9.99
2019/04/15 19:00 EDT    3.11   3.67   14  295   21  64.2  62.8 1010.7 -9.9 -9.999 -99.9 -99.99 -9.99
2019/04/15 19:06 EDT    3.10   3.69   10  318   16  63.9  63.0 1010.9 -9.9 -9.999 -99.9 -99.99 -9.99
2019/04/15 19:12 EDT    3.10   3.73   11  306   18  63.7  63.0 1011.1 -9.9 -9.999 -99.9 -99.99 -9.99
2019/04/15 19:18 EDT    3.08   3.75   10  313   15  63.1  63.0 1011.3 -9.9 -9.999 -99.9 -99.99 -9.99
2019/04/15 19:24 EDT    3.07   3.78   11  312   19  63.0  63.0 1011.4 -9.9 -9.999 -99.9 -99.99 -9.99
2019/04/15 19:30 EDT    3.05   3.81    9  309   18  62.8  63.1 1011.6 -9.9 -9.999 -99.9 -99.99 -9.99
2019/04/15 19:36 EDT    3.03   3.83   12  317   17  62.4  63.1 1011.8 -9.9 -9.999 -99.9 -99.99 -9.99
2019/04/15 19:42 EDT    3.00   3.83    9  316   17  62.2  63.1 1012.0 -9.9 -9.999 -99.9 -99.99 -9.99
2019/04/15 19:48 EDT    2.97   3.84    5  306   14  62.1  63.1 1012.2 -9.9 -9.999 -99.9 -99.99 -9.99
2019/04/15 19:54 EDT    2.94   3.83    8  311   13  61.9  63.3 1012.3 -9.9 -9.999 -99.9 -99.99 -9.99
2019/04/15 20:00 EDT    2.90   3.81    8  315   13  61.7  63.3 1012.5 -9.9 -9.999 -99.9 -99.99 -9.99
2019/04/15 20:06 EDT    2.86   3.78    7  312   11  61.5  63.3 1012.7 -9.9 -9.999 -99.9 -99.99 -9.99
2019/04/15 20:12 EDT    2.82   3.75    9  313   13  61.5  63.3 1013.0 -9.9 -9.999 -99.9 -99.99 -9.99
2019/04/15 20:18 EDT    2.78   3.72    9  322   12  61.2  63.3 1013.2 -9.9 -9.999 -99.9 -99.99 -9.99
2019/04/15 20:24 EDT    2.73   3.67   11  315   14  61.2  63.5 1013.3 -9.9 -9.999 -99.9 -99.99 -9.99
2019/04/15 20:30 EDT    2.68   3.62   10  313   17  61.2  63.5 1013.5 -9.9 -9.999 -99.9 -99.99 -9.99
2019/04/15 20:36 EDT    2.63   3.57    9  315   12  61.0  63.3 1013.7 -9.9 -9.999 -99.9 -99.99 -9.99
2019/04/15 20:42 EDT    2.58   3.51    8  318   16  60.8  63.3 1013.8 -9.9 -9.999 -99.9 -99.99 -9.99
2019/04/15 20:48 EDT    2.52   3.44   10  325   14  60.6  63.3 1014.0 -9.9 -9.999 -99.9 -99.99 -9.99
2019/04/15 20:54 EDT    2.46   3.37    7  331   12  60.6  63.3 1014.3 -9.9 -9.999 -99.9 -99.99 -9.99
2019/04/15 21:00 EDT    2.40   3.31   12  338   15  60.3  63.3 1014.6 -9.9 -9.999 -99.9 -99.99 -9.99
2019/04/15 21:06 EDT    2.34   3.25    7  340   14  59.9  63.3 1014.8 -9.9 -9.999 -99.9 -99.99 -9.99
2019/04/15 21:12 EDT    2.27   3.18   11  351   17  59.7  63.1 1015.0 -9.9 -9.999 -99.9 -99.99 -9.99
2019/04/15 21:18 EDT    2.21   3.09    8  344   14  59.4  63.1 1015.1 -9.9 -9.999 -99.9 -99.99 -9.99
2019/04/15 21:24 EDT    2.14   2.97   10  332   15  59.2  63.3 1015.2 -9.9 -9.999 -99.9 -99.99 -9.99
2019/04/15 21:30 EDT    2.07   2.86    9  335   13  59.0  63.3 1015.4 -9.9 -9.999 -99.9 -99.99 -9.99
2019/04/15 21:36 EDT    2.00   2.76    9  337   14  58.8  63.5 1015.5 -9.9 -9.999 -99.9 -99.99 -9.99
2019/04/15 21:42 EDT    1.92   2.65    9  347   14  58.3  63.5 1015.7 -9.9 -9.999 -99.9 -99.99 -9.99
2019/04/15 21:48 EDT    1.85   2.54   10  340   17  58.1  63.5 1015.8 -9.9 -9.999 -99.9 -99.99 -9.99
2019/04/15 21:54 EDT    1.78   2.45    8  333   15  57.7  63.7 1015.9 -9.9 -9.999 -99.9 -99.99 -9.99
2019/04/15 22:00 EDT    1.70   2.35    9  339   16  57.6  63.7 1016.1 -9.9 -9.999 -99.9 -99.99 -9.99
2019/04/15 22:06 EDT    1.62   2.25    8  348   15  57.4  63.7 1016.2 -9.9 -9.999 -99.9 -99.99 -9.99
2019/04/15 22:12 EDT    1.55   2.17   11  339   15  57.2  63.7 1016.2 -9.9 -9.999 -99.9 -99.99 -9.99
2019/04/15 22:18 EDT    1.47   2.08    8  343   14  57.0  63.7 1016.3 -9.9 -9.999 -99.9 -99.99 -9.99
2019/04/15 22:24 EDT    1.39   2.01   10  334   15  56.8  63.7 1016.3 -9.9 -9.999 -99.9 -99.99 -9.99
2019/04/15 22:30 EDT    1.31   1.96    7  338   17  56.7  63.7 1016.5 -9.9 -9.999 -99.9 -99.99 -9.99
2019/04/15 22:36 EDT    1.23   1.88    6  330   11  56.3  63.7 1016.6 -9.9 -9.999 -99.9 -99.99 -9.99
2019/04/15 22:42 EDT    1.15   1.82    7  327   16  56.1  63.7 1016.7 -9.9 -9.999 -99.9 -99.99 -9.99
2019/04/15 22:48 EDT    1.08   1.75    6  332   16  56.1  63.7 1016.8 -9.9 -9.999 -99.9 -99.99 -9.99
2019/04/15 22:54 EDT    1.00   1.67    8  331   13  55.9  63.7 1016.8 -9.9 -9.999 -99.9 -99.99 -9.99
2019/04/15 23:00 EDT    0.92   1.59    8  336   13  55.9  63.7 1016.9 -9.9 -9.999 -99.9 -99.99 -9.99
2019/04/15 23:06 EDT    0.85   1.52    9  331   15  55.8  63.7 1017.0 -9.9 -9.999 -99.9 -99.99 -9.99
2019/04/15 23:12 EDT    0.77   1.46    9  329   17  55.6  63.7 1017.2 -9.9 -9.999 -99.9 -99.99 -9.99
2019/04/15 23:18 EDT    0.70   1.39    8  326   14  55.4  63.5 1017.4 -9.9 -9.999 -99.9 -99.99 -9.99
2019/04/15 23:24 EDT    0.63   1.32    7  329   11  55.2  63.5 1017.5 -9.9 -9.999 -99.9 -99.99 -9.99
2019/04/15 23:30 EDT    0.57   1.24    6  338   10  55.0  63.5 1017.8 -9.9 -9.999 -99.9 -99.99 -9.99
2019/04/15 23:36 EDT    0.50   1.18    8  350   14  55.0  63.5 1017.8 -9.9 -9.999 -99.9 -99.99 -9.99
2019/04/15 23:42 EDT    0.44   1.11    9  336   15  54.9  63.5 1017.9 -9.9 -9.999 -99.9 -99.99 -9.99
2019/04/15 23:48 EDT    0.38   1.04    8  340   14  54.9  63.5 1018.1 -9.9 -9.999 -99.9 -99.99 -9.99
2019/04/15 23:54 EDT    0.32   0.99    7  336   12  54.5  63.5 1018.4 -9.9 -9.999 -99.9 -99.99 -9.99
2019/04/16 00:00 EDT    0.27   0.93    8  336   11  54.3  63.5 1018.5 -9.9 -9.999 -99.9 -99.99 -9.99
2019/04/16 00:06 EDT    0.22   0.86    9  337   14  54.3  63.5 1018.6 -9.9 -9.999 -99.9 -99.99 -9.99
2019/04/16 00:12 EDT    0.17   0.80    7  341   11  54.1  63.5 1018.7 -9.9 -9.999 -99.9 -99.99 -9.99
2019/04/16 00:18 EDT    0.13   0.76    8  337   11  54.1  63.5 1018.8 -9.9 -9.999 -99.9 -99.99 -9.99
2019/04/16 00:24 EDT    0.10   0.70    8  329   13  54.0  63.5 1018.9 -9.9 -9.999 -99.9 -99.99 -9.99
2019/04/16 00:30 EDT    0.06   0.65   10  342   12  54.0  63.5 1019.0 -9.9 -9.999 -99.9 -99.99 -9.99
2019/04/16 00:36 EDT    0.03   0.60    7  338   10  53.8  63.5 1019.1 -9.9 -9.999 -99.9 -99.99 -9.99
2019/04/16 00:42 EDT    0.01   0.56    6  329   11  53.6  63.5 1019.2 -9.9 -9.999 -99.9 -99.99 -9.99
2019/04/16 00:48 EDT   -0.01   0.54    5  332    7  53.1  63.5 1019.4 -9.9 -9.999 -99.9 -99.99 -9.99
2019/04/16 00:54 EDT   -0.03   0.49    5  336    9  52.9  63.5 1019.5 -9.9 -9.999 -99.9 -99.99 -9.99
2019/04/16 01:00 EDT   -0.04   0.47    6  331   10  52.9  63.5 1019.5 -9.9 -9.999 -99.9 -99.99 -9.99
2019/04/16 01:06 EDT   -0.05   0.44    6  336    9  52.7  63.5 1019.5 -9.9 -9.999 -99.9 -99.99 -9.99
2019/04/16 01:12 EDT   -0.05   0.40    4  344    9  52.7  63.5 1019.4 -9.9 -9.999 -99.9 -99.99 -9.99
2019/04/16 01:18 EDT   -0.05   0.38    5  336    7  52.5  63.5 1019.4 -9.9 -9.999 -99.9 -99.99 -9.99
2019/04/16 01:24 EDT   -0.04   0.35    5  339    8  52.5  63.5 1019.3 -9.9 -9.999 -99.9 -99.99 -9.99
2019/04/16 01:30 EDT   -0.03   0.33    5  342    8  52.5  63.5 1019.4 -9.9 -9.999 -99.9 -99.99 -9.99
2019/04/16 01:36 EDT   -0.01   0.33    5  337    8  52.5  63.5 1019.5 -9.9 -9.999 -99.9 -99.99 -9.99
2019/04/16 01:42 EDT    0.01   0.33    5  336    8  52.3  63.5 1019.6 -9.9 -9.999 -99.9 -99.99 -9.99
2019/04/16 01:48 EDT    0.03   0.35    4  341    6  52.2  63.5 1019.6 -9.9 -9.999 -99.9 -99.99 -9.99
2019/04/16 01:54 EDT    0.06   0.38    6  339    9  52.2  63.5 1019.6 -9.9 -9.999 -99.9 -99.99 -9.99
2019/04/16 02:00 EDT    0.09   0.41    5  335    7  52.0  63.5 1019.7 -9.9 -9.999 -99.9 -99.99 -9.99
2019/04/16 02:06 EDT    0.13   0.44    4  333    9  52.0  63.5 1019.7 -9.9 -9.999 -99.9 -99.99 -9.99
2019/04/16 02:12 EDT    0.16   0.48    5  335    7  51.8  63.5 1019.8 -9.9 -9.999 -99.9 -99.99 -9.99
2019/04/16 02:18 EDT    0.21   0.54    3  326    7  51.6  63.5 1019.7 -9.9 -9.999 -99.9 -99.99 -9.99
2019/04/16 02:24 EDT    0.25   0.59    4  303    5  51.4  63.5 1019.9 -9.9 -9.999 -99.9 -99.99 -9.99
2019/04/16 02:30 EDT    0.30   0.63    3  307    4  51.6  63.5 1019.9 -9.9 -9.999 -99.9 -99.99 -9.99
2019/04/16 02:36 EDT    0.35   0.69    3  311    5  51.4  63.5 1019.9 -9.9 -9.999 -99.9 -99.99 -9.99
2019/04/16 02:42 EDT    0.40   0.75    4  309    6  51.3  63.5 1020.0 -9.9 -9.999 -99.9 -99.99 -9.99
2019/04/16 02:48 EDT    0.46   0.80    4  310    7  51.3  63.5 1020.0 -9.9 -9.999 -99.9 -99.99 -9.99
2019/04/16 02:54 EDT    0.52   0.87    3  308    5  50.9  63.5 1020.0 -9.9 -9.999 -99.9 -99.99 -9.99
2019/04/16 03:00 EDT    0.58   0.93    3  309    6  50.7  63.5 1020.0 -9.9 -9.999 -99.9 -99.99 -9.99
2019/04/16 03:06 EDT    0.65   1.00    3  313    5  50.5  63.5 1020.1 -9.9 -9.999 -99.9 -99.99 -9.99
2019/04/16 03:12 EDT    0.71   1.08    3  314    5  50.2  63.7 1020.1 -9.9 -9.999 -99.9 -99.99 -9.99
2019/04/16 03:18 EDT    0.78   1.16    4  313    6  50.2  63.7 1020.0 -9.9 -9.999 -99.9 -99.99 -9.99
2019/04/16 03:24 EDT    0.85   1.23    5  311    6  50.2  63.7 1020.0 -9.9 -9.999 -99.9 -99.99 -9.99
2019/04/16 03:30 EDT    0.92   1.30    3  314    6  50.2  63.7 1020.0 -9.9 -9.999 -99.9 -99.99 -9.99
2019/04/16 03:36 EDT    0.99   1.39    4  322    5  49.8  63.7 1020.0 -9.9 -9.999 -99.9 -99.99 -9.99
2019/04/16 03:42 EDT    1.07   1.44    3  317    7  49.5  63.7 1020.1 -9.9 -9.999 -99.9 -99.99 -9.99
2019/04/16 03:48 EDT    1.14   1.49    4  311    7  49.5  63.7 1020.3 -9.9 -9.999 -99.9 -99.99 -9.99
2019/04/16 03:54 EDT    1.22   1.54    5  307    8  49.6  63.7 1020.5 -9.9 -9.999 -99.9 -99.99 -9.99
2019/04/16 04:00 EDT    1.30   1.59    4  308    8  49.6  63.7 1020.6 -9.9 -9.999 -99.9 -99.99 -9.99
2019/04/16 04:06 EDT    1.38   1.66    4  309    7  49.3  63.9 1020.5 -9.9 -9.999 -99.9 -99.99 -9.99
2019/04/16 04:12 EDT    1.46   1.72    5  311    7  49.1  63.9 1020.6 -9.9 -9.999 -99.9 -99.99 -9.99
2019/04/16 04:18 EDT    1.54   1.78    6  315    8  48.9  63.9 1020.6 -9.9 -9.999 -99.9 -99.99 -9.99
2019/04/16 04:24 EDT    1.62   1.85    4  312    8  48.7  63.9 1020.8 -9.9 -9.999 -99.9 -99.99 -9.99
2019/04/16 04:30 EDT    1.70   1.91    4  314    6  48.7  63.9 1020.8 -9.9 -9.999 -99.9 -99.99 -9.99
2019/04/16 04:36 EDT    1.78   1.99    4  308    6  48.6  63.9 1020.9 -9.9 -9.999 -99.9 -99.99 -9.99
2019/04/16 04:42 EDT    1.86   2.07    4  313    7  48.6  63.9 1020.9 -9.9 -9.999 -99.9 -99.99 -9.99
2019/04/16 04:48 EDT    1.94   2.16    4  315    6  48.2  63.9 1020.9 -9.9 -9.999 -99.9 -99.99 -9.99
2019/04/16 04:54 EDT    2.03   2.22    4  305    6  48.2  63.9 1021.0 -9.9 -9.999 -99.9 -99.99 -9.99
2019/04/16 05:00 EDT    2.10   2.29    3  309    7  48.4  63.7 1021.1 -9.9 -9.999 -99.9 -99.99 -9.99
2019/04/16 05:06 EDT    2.18   2.37    4  290    5  48.6  63.7 1021.2 -9.9 -9.999 -99.9 -99.99 -9.99
2019/04/16 05:12 EDT    2.26   2.43    3  296    5  48.0  63.7 1021.2 -9.9 -9.999 -99.9 -99.99 -9.99
2019/04/16 05:18 EDT    2.34   2.49    3  298    4  48.0  63.7 1021.3 -9.9 -9.999 -99.9 -99.99 -9.99
2019/04/16 05:24 EDT    2.41   2.53    4  288    6  48.0  63.7 1021.4 -9.9 -9.999 -99.9 -99.99 -9.99
2019/04/16 05:30 EDT    2.48   2.60    3  298    5  47.8  63.7 1021.4 -9.9 -9.999 -99.9 -99.99 -9.99
2019/04/16 05:36 EDT    2.55   2.65    3  299    4  47.7  63.7 1021.4 -9.9 -9.999 -99.9 -99.99 -9.99
2019/04/16 05:42 EDT    2.62   2.71    3  291    5  47.7  63.7 1021.5 -9.9 -9.999 -99.9 -99.99 -9.99
2019/04/16 05:48 EDT    2.69   2.74    4  296    5  47.3  63.5 1021.6 -9.9 -9.999 -99.9 -99.99 -9.99
2019/04/16 05:54 EDT    2.75   2.81    3  297    5  47.1  63.5 1021.7 -9.9 -9.999 -99.9 -99.99 -9.99
2019/04/16 06:00 EDT    2.81   2.87    5  293    6  46.9  63.5 1021.9 -9.9 -9.999 -99.9 -99.99 -9.99
2019/04/16 06:06 EDT    2.87   2.93    5  299    7  46.6  63.5 1022.0 -9.9 -9.999 -99.9 -99.99 -9.99
2019/04/16 06:12 EDT    2.92   2.98    3  300    7  46.6  63.5 1022.1 -9.9 -9.999 -99.9 -99.99 -9.99
2019/04/16 06:18 EDT    2.97   3.04    4  297    6  46.6  63.3 1022.1 -9.9 -9.999 -99.9 -99.99 -9.99
2019/04/16 06:24 EDT    3.02   3.09    3  295    6  46.6  63.3 1022.2 -9.9 -9.999 -99.9 -99.99 -9.99
2019/04/16 06:30 EDT    3.06   3.13    4  296    7  46.2  63.3 1022.5 -9.9 -9.999 -99.9 -99.99 -9.99
2019/04/16 06:36 EDT    3.10   3.15    5  289    7  46.4  63.3 1022.6 -9.9 -9.999 -99.9 -99.99 -9.99
2019/04/16 06:42 EDT    3.13   3.18    4  300    6  46.2  63.3 1022.7 -9.9 -9.999 -99.9 -99.99 -9.99
2019/04/16 06:48 EDT    3.16   3.20    4  321    7  46.0  63.3 1022.8 -9.9 -9.999 -99.9 -99.99 -9.99
2019/04/16 06:54 EDT    3.19   3.19    5  310    9  46.0  63.1 1023.0 -9.9 -9.999 -99.9 -99.99 -9.99
2019/04/16 07:00 EDT    3.21   3.20    5  313    8  46.2  63.1 1023.2 -9.9 -9.999 -99.9 -99.99 -9.99
2019/04/16 07:06 EDT    3.23   3.22    6  315    8  46.2  63.1 1023.3 -9.9 -9.999 -99.9 -99.99 -9.99
2019/04/16 07:12 EDT    3.24   3.23    6  316    9  46.4  63.1 1023.3 -9.9 -9.999 -99.9 -99.99 -9.99
2019/04/16 07:18 EDT    3.25   3.23    6  315   10  46.6  63.1 1023.4 -9.9 -9.999 -99.9 -99.99 -9.99
2019/04/16 07:24 EDT    3.26   3.23    6  320    9  46.8  63.1 1023.3 -9.9 -9.999 -99.9 -99.99 -9.99
2019/04/16 07:30 EDT    3.26   3.24    6  319    9  46.9  63.1 1023.2 -9.9 -9.999 -99.9 -99.99 -9.99
2019/04/16 07:36 EDT    3.25   3.23    8  314   11  47.3  63.0 1023.3 -9.9 -9.999 -99.9 -99.99 -9.99
2019/04/16 07:42 EDT    3.25   3.21    6  320    9  47.7  63.0 1023.5 -9.9 -9.999 -99.9 -99.99 -9.99
2019/04/16 07:48 EDT    3.23   3.19    5  313    9  48.0  62.4 1023.7 -9.9 -9.999 -99.9 -99.99 -9.99
2019/04/16 07:54 EDT    3.22   3.19    5  317   10  48.6  62.2 1023.8 -9.9 -9.999 -99.9 -99.99 -9.99
2019/04/16 08:00 EDT    3.20   3.15    5  318   10  48.7  62.2 1023.8 -9.9 -9.999 -99.9 -99.99 -9.99
2019/04/16 08:06 EDT    3.18   3.11    7  312    9  49.3  62.4 1023.9 -9.9 -9.999 -99.9 -99.99 -9.99
2019/04/16 08:12 EDT    3.15   3.08    5  320    9  49.6  62.4 1024.0 -9.9 -9.999 -99.9 -99.99 -9.99
2019/04/16 08:18 EDT    3.12   3.04    8  319   11  49.8  62.6 1024.0 -9.9 -9.999 -99.9 -99.99 -9.99
2019/04/16 08:24 EDT    3.09   3.00    5  324   13  50.4  62.6 1024.0 -9.9 -9.999 -99.9 -99.99 -9.99
2019/04/16 08:30 EDT    3.05   2.98    6  317    9  50.7  62.8 1024.0 -9.9 -9.999 -99.9 -99.99 -9.99
2019/04/16 08:36 EDT    3.01   2.94    5  323    9  51.1  62.8 1024.1 -9.9 -9.999 -99.9 -99.99 -9.99
2019/04/16 08:42 EDT    2.97   2.91    7  324   11  51.3  62.8 1024.0 -9.9 -9.999 -99.9 -99.99 -9.99
2019/04/16 08:48 EDT    2.93   2.87    6  327   10  51.4  62.8 1024.0 -9.9 -9.999 -99.9 -99.99 -9.99
2019/04/16 08:54 EDT    2.88   2.81    5  307   10  52.2  62.8 1024.1 -9.9 -9.999 -99.9 -99.99 -9.99
2019/04/16 09:00 EDT    2.83   2.76    7  316   10  52.5  62.8 1024.2 -9.9 -9.999 -99.9 -99.99 -9.99
2019/04/16 09:06 EDT    2.78   2.70    6  323    8  52.9  62.8 1024.1 -9.9 -9.999 -99.9 -99.99 -9.99
2019/04/16 09:12 EDT    2.72   2.64    6  334    8  53.4  62.8 1024.2 -9.9 -9.999 -99.9 -99.99 -9.99
2019/04/16 09:18 EDT    2.66   2.56    7  316   10  53.2  62.8 1024.2 -9.9 -9.999 -99.9 -99.99 -9.99
2019/04/16 09:24 EDT    2.60   2.48    6  334   11  53.8  62.8 1024.2 -9.9 -9.999 -99.9 -99.99 -9.99
2019/04/16 09:30 EDT    2.54   2.42    4  335    7  54.5  62.8 1024.3 -9.9 -9.999 -99.9 -99.99 -9.99
2019/04/16 09:36 EDT    2.48   2.35    5  331    9  54.7  62.8 1024.3 -9.9 -9.999 -99.9 -99.99 -9.99
2019/04/16 09:42 EDT    2.41   2.28    5  319    9  55.0  62.8 1024.4 -9.9 -9.999 -99.9 -99.99 -9.99
2019/04/16 09:48 EDT    2.34   2.20    6  315   10  55.0  62.8 1024.4 -9.9 -9.999 -99.9 -99.99 -9.99
2019/04/16 09:54 EDT    2.27   2.12    5  317   11  55.0  62.6 1024.4 -9.9 -9.999 -99.9 -99.99 -9.99
2019/04/16 10:00 EDT    2.20   2.03    7  327   12  55.6  62.6 1024.4 -9.9 -9.999 -99.9 -99.99 -9.99
2019/04/16 10:06 EDT    2.13   1.95    7  341   13  55.8  62.8 1024.4 -9.9 -9.999 -99.9 -99.99 -9.99
2019/04/16 10:12 EDT    2.05   1.87    6  342    8  56.1  62.8 1024.5 -9.9 -9.999 -99.9 -99.99 -9.99
2019/04/16 10:18 EDT    1.98   1.78    7  338   12  56.1  62.4 1024.6 -9.9 -9.999 -99.9 -99.99 -9.99
2019/04/16 10:24 EDT    1.90   1.70    7  338   11  57.0  62.4 1024.7 -9.9 -9.999 -99.9 -99.99 -9.99
2019/04/16 10:30 EDT    1.82   1.61    8   10   12  56.7  62.6 1024.6 -9.9 -9.999 -99.9 -99.99 -9.99
2019/04/16 10:36 EDT    1.74   1.54    7    1   10  56.8  62.6 1024.5 -9.9 -9.999 -99.9 -99.99 -9.99
2019/04/16 10:42 EDT    1.66   1.46    8    6   11  56.3  62.6 1024.5 -9.9 -9.999 -99.9 -99.99 -9.99
2019/04/16 10:48 EDT    1.58   1.36    6  329    9  57.4  62.4 1024.5 -9.9 -9.999 -99.9 -99.99 -9.99
2019/04/16 10:54 EDT    1.50   1.27    7  359   12  57.0  62.4 1024.5 -9.9 -9.999 -99.9 -99.99 -9.99
2019/04/16 11:00 EDT    1.42   1.18    5  340   13  57.0  62.4 1024.5 -9.9 -9.999 -99.9 -99.99 -9.99
2019/04/16 11:06 EDT    1.33   1.08    7  352   11  56.8  62.4 1024.5 -9.9 -9.999 -99.9 -99.99 -9.99
2019/04/16 11:12 EDT    1.25   0.99    7  341   10  57.6  62.6 1024.5 -9.9 -9.999 -99.9 -99.99 -9.99
2019/04/16 11:18 EDT    1.17   0.92    2  319   12  57.7  62.6 1024.3 -9.9 -9.999 -99.9 -99.99 -9.99
2019/04/16 11:24 EDT    1.09   0.84    6   12   13  57.4  62.6 1024.3 -9.9 -9.999 -99.9 -99.99 -9.99
2019/04/16 11:30 EDT    1.01   0.73    8  332   10  57.6  62.6 1024.3 -9.9 -9.999 -99.9 -99.99 -9.99
2019/04/16 11:36 EDT    0.93   0.63    6  343   10  57.4  62.6 1024.2 -9.9 -9.999 -99.9 -99.99 -9.99
2019/04/16 11:42 EDT    0.86   0.55    8  336   10  57.7  62.6 1024.1 -9.9 -9.999 -99.9 -99.99 -9.99
2019/04/16 11:48 EDT    0.78   0.48    1   27    8  58.1  62.6 1024.0 -9.9 -9.999 -99.9 -99.99 -9.99
2019/04/16 11:54 EDT    0.71   0.40    7    3   11  58.3  62.6 1024.0 -9.9 -9.999 -99.9 -99.99 -9.99
2019/04/16 12:00 EDT    0.64   0.32    4    9    8  59.0  62.6 1024.0 -9.9 -9.999 -99.9 -99.99 -9.99
2019/04/16 12:06 EDT    0.57   0.25    4  355    9  58.8  62.6 1023.9 -9.9 -9.999 -99.9 -99.99 -9.99
2019/04/16 12:12 EDT    0.50   0.16    5  352    7  58.6  62.6 1023.8 -9.9 -9.999 -99.9 -99.99 -9.99
2019/04/16 12:18 EDT    0.44   0.10    4  305    8  58.3  62.6 1023.7 -9.9 -9.999 -99.9 -99.99 -9.99
2019/04/16 12:24 EDT    0.38   0.05    3  360    6  59.0  62.6 1023.7 -9.9 -9.999 -99.9 -99.99 -9.99
2019/04/16 12:30 EDT    0.33  -0.02    3  315    8  59.2  62.6 1023.6 -9.9 -9.999 -99.9 -99.99 -9.99
2019/04/16 12:36 EDT    0.27  -0.08    5  323    9  58.8  62.8 1023.6 -9.9 -9.999 -99.9 -99.99 -9.99
2019/04/16 12:42 EDT    0.23  -0.12    5  252    8  58.5  62.8 1023.5 -9.9 -9.999 -99.9 -99.99 -9.99
2019/04/16 12:48 EDT    0.18  -0.15    1  275    4  59.0  62.8 1023.4 -9.9 -9.999 -99.9 -99.99 -9.99
2019/04/16 12:54 EDT    0.14  -0.20    2  112    3  59.9  62.8 1023.2 -9.9 -9.999 -99.9 -99.99 -9.99
2019/04/16 13:00 EDT    0.11  -0.24    3  159    4  59.7  62.8 1023.1 -9.9 -9.999 -99.9 -99.99 -9.99
2019/04/16 13:06 EDT    0.07  -0.27    3  135    4  59.9  62.8 1023.0 -9.9 -9.999 -99.9 -99.99 -9.99
2019/04/16 13:12 EDT    0.05  -0.30    3   57    6  60.8  62.8 1022.9 -9.9 -9.999 -99.9 -99.99 -9.99
2019/04/16 13:18 EDT    0.02  -0.32    2  188    4  60.8  62.8 1022.8 -9.9 -9.999 -99.9 -99.99 -9.99
2019/04/16 13:24 EDT    0.00  -0.35    1  161    4  61.5  62.8 1022.8 -9.9 -9.999 -99.9 -99.99 -9.99
2019/04/16 13:30 EDT   -0.01  -0.35    2  164    3  61.2  63.0 1022.7 -9.9 -9.999 -99.9 -99.99 -9.99
2019/04/16 13:36 EDT   -0.02  -0.36    5  143    7  61.7  63.3 1022.6 -9.9 -9.999 -99.9 -99.99 -9.99
2019/04/16 13:42 EDT   -0.02  -0.35    3  115    9  61.9  63.3 1022.6 -9.9 -9.999 -99.9 -99.99 -9.99
2019/04/16 13:48 EDT   -0.02  -0.34    4  147    6  62.1  63.5 1022.4 -9.9 -9.999 -99.9 -99.99 -9.99
2019/04/16 13:54 EDT   -0.02  -0.33    3  334    7  63.0  63.5 1022.3 -9.9 -9.999 -99.9 -99.99 -9.99
2019/04/16 14:00 EDT   -0.01  -0.33    7  239   11  63.1  63.9 1022.1 -9.9 -9.999 -99.9 -99.99 -9.99
2019/04/16 14:06 EDT    0.00  -0.32    2  317   11  63.3  63.9 1022.0 -9.9 -9.999 -99.9 -99.99 -9.99
2019/04/16 14:12 EDT    0.02  -0.29    4  291    6  63.7  64.0 1021.9 -9.9 -9.999 -99.9 -99.99 -9.99
2019/04/16 14:18 EDT    0.04  -0.31    6  242   14  63.9  64.0 1021.9 -9.9 -9.999 -99.9 -99.99 -9.99
2019/04/16 14:24 EDT    0.07  -0.29    4  228   12  64.0  64.2 1021.8 -9.9 -9.999 -99.9 -99.99 -9.99
2019/04/16 14:30 EDT    0.10  -0.25    4  221    8  64.4  64.4 1021.7 -9.9 -9.999 -99.9 -99.99 -9.99
2019/04/16 14:36 EDT    0.13  -0.22    2  195    7  65.1  64.4 1021.6 -9.9 -9.999 -99.9 -99.99 -9.99
2019/04/16 14:42 EDT    0.17  -0.18    5  285    8  65.1  64.4 1021.4 -9.9 -9.999 -99.9 -99.99 -9.99
2019/04/16 14:48 EDT    0.21  -0.16    7  289   10  65.3  64.6 1021.2 -9.9 -9.999 -99.9 -99.99 -9.99
2019/04/16 14:54 EDT    0.25  -0.11    5  268    9  65.1  64.6 1021.1 -9.9 -9.999 -99.9 -99.99 -9.99
2019/04/16 15:00 EDT    0.30  -0.05    6  232   11  65.5  64.6 1021.0 -9.9 -9.999 -99.9 -99.99 -9.99
2019/04/16 15:06 EDT    0.35   0.00    7  220    9  66.0  64.6 1021.0 -9.9 -9.999 -99.9 -99.99 -9.99
2019/04/16 15:12 EDT    0.40   0.06    6  291    9  66.4  64.4 1020.8 -9.9 -9.999 -99.9 -99.99 -9.99
2019/04/16 15:18 EDT    0.46   0.12    5  263   11  66.0  64.4 1020.8 -9.9 -9.999 -99.9 -99.99 -9.99
2019/04/16 15:24 EDT    0.52   0.18    6  195    8  66.2  64.4 1020.7 -9.9 -9.999 -99.9 -99.99 -9.99
2019/04/16 15:30 EDT    0.58   0.23   10  254   13  66.0  64.4 1020.6 -9.9 -9.999 -99.9 -99.99 -9.99
2019/04/16 15:36 EDT    0.64   0.28    7  225   11  66.4  64.4 1020.5 -9.9 -9.999 -99.9 -99.99 -9.99
2019/04/16 15:42 EDT    0.71   0.35    6  177   11  66.7  64.4 1020.3 -9.9 -9.999 -99.9 -99.99 -9.99
2019/04/16 15:48 EDT    0.78   0.42    7  199   11  67.3  64.4 1020.1 -9.9 -9.999 -99.9 -99.99 -9.99
2019/04/16 15:54 EDT    0.85   0.48    8  265   13  66.9  64.4 1020.0 -9.9 -9.999 -99.9 -99.99 -9.99
2019/04/16 16:00 EDT    0.92   0.55    8  234   11  67.1  64.4 1019.9 -9.9 -9.999 -99.9 -99.99 -9.99
2019/04/16 16:06 EDT    1.00   0.63    7  230   13  67.1  64.4 1019.9 -9.9 -9.999 -99.9 -99.99 -9.99
2019/04/16 16:12 EDT    1.07   0.71    8  246   11  67.1  64.0 1019.9 -9.9 -9.999 -99.9 -99.99 -9.99
2019/04/16 16:18 EDT    1.15   0.81    7  261   11  67.5  64.0 1019.8 -9.9 -9.999 -99.9 -99.99 -9.99
2019/04/16 16:24 EDT    1.23   0.88    7  246   11  67.5  64.0 1019.7 -9.9 -9.999 -99.9 -99.99 -9.99
2019/04/16 16:30 EDT    1.31   0.97    7  276   12  67.3  64.0 1019.7 -9.9 -9.999 -99.9 -99.99 -9.99
2019/04/16 16:36 EDT    1.40   1.06    7  272   10  67.8  64.0 1019.7 -9.9 -9.999 -99.9 -99.99 -9.99
2019/04/16 16:42 EDT    1.48   1.15    4  251   11  68.2  64.0 1019.7 -9.9 -9.999 -99.9 -99.99 -9.99
2019/04/16 16:48 EDT    1.56   1.25    7  276   12  68.0  64.0 1019.6 -9.9 -9.999 -99.9 -99.99 -9.99
2019/04/16 16:54 EDT    1.65   1.34    6  221    9  68.2  64.0 1019.6 -9.9 -9.999 -99.9 -99.99 -9.99
2019/04/16 17:00 EDT    1.73   1.41    9  235   11  68.0  64.0 1019.6 -9.9 -9.999 -99.9 -99.99 -9.99
2019/04/16 17:06 EDT    1.82   1.49    6  240   12  68.2  63.7 1019.5 -9.9 -9.999 -99.9 -99.99 -9.99
2019/04/16 17:12 EDT    1.90   1.59    7  246   10  68.0  63.7 1019.4 -9.9 -9.999 -99.9 -99.99 -9.99
2019/04/16 17:18 EDT    1.99   1.67    8  235   12  68.0  63.7 1019.4 -9.9 -9.999 -99.9 -99.99 -9.99
2019/04/16 17:24 EDT    2.07   1.76    6  218   11  68.2  63.7 1019.4 -9.9 -9.999 -99.9 -99.99 -9.99
2019/04/16 17:30 EDT    2.16   1.84    9  234   13  68.4  63.7 1019.3 -9.9 -9.999 -99.9 -99.99 -9.99
2019/04/16 17:36 EDT    2.24   1.93    7  221   11  68.2  63.7 1019.2 -9.9 -9.999 -99.9 -99.99 -9.99
2019/04/16 17:42 EDT    2.32   2.01    7  242   11  68.4  63.5 1019.2 -9.9 -9.999 -99.9 -99.99 -9.99
2019/04/16 17:48 EDT    2.40   2.10    9  255   11  68.2  63.5 1019.2 -9.9 -9.999 -99.9 -99.99 -9.99
2019/04/16 17:54 EDT    2.48   2.19    7  225   14  68.2  63.5 1019.2 -9.9 -9.999 -99.9 -99.99 -9.99
2019/04/16 18:00 EDT    2.56   2.27    6  204   11  68.2  63.5 1019.2 -9.9 -9.999 -99.9 -99.99 -9.99
2019/04/16 18:06 EDT    2.63   2.34    8  195   13  68.2  63.3 1019.2 -9.9 -9.999 -99.9 -99.99 -9.99
2019/04/16 18:12 EDT    2.70   2.41    6  223   13  68.0  63.3 1019.2 -9.9 -9.999 -99.9 -99.99 -9.99
2019/04/16 18:18 EDT    2.77   2.47    6  233    9  67.8  63.3 1019.1 -9.9 -9.999 -99.9 -99.99 -9.99
2019/04/16 18:24 EDT    2.84   2.53    7  235   10  68.0  63.3 1019.1 -9.9 -9.999 -99.9 -99.99 -9.99
2019/04/16 18:30 EDT    2.90   2.57    5  219    9  68.0  63.3 1019.1 -9.9 -9.999 -99.9 -99.99 -9.99
2019/04/16 18:36 EDT    2.96   2.62    6  225   12  68.0  63.3 1019.1 -9.9 -9.999 -99.9 -99.99 -9.99
2019/04/16 18:42 EDT    3.01   2.68    8  229   12  67.8  63.3 1019.1 -9.9 -9.999 -99.9 -99.99 -9.99
2019/04/16 18:48 EDT    3.07   2.71    6  219   10  67.6  63.3 1019.0 -9.9 -9.999 -99.9 -99.99 -9.99
2019/04/16 18:54 EDT    3.11   2.74    9  220   14  67.5  63.3 1019.0 -9.9 -9.999 -99.9 -99.99 -9.99
2019/04/16 19:00 EDT    3.16   2.77   10  233   12  67.5  63.3 1018.9 -9.9 -9.999 -99.9 -99.99 -9.99
2019/04/16 19:06 EDT    3.20   2.81    6  215   11  67.3  63.3 1018.9 -9.9 -9.999 -99.9 -99.99 -9.99
2019/04/16 19:12 EDT    3.23   2.84    6  223   10  67.1  63.3 1019.0 -9.9 -9.999 -99.9 -99.99 -9.99
2019/04/16 19:18 EDT    3.26   2.86    8  233   12  66.9  63.3 1019.0 -9.9 -9.999 -99.9 -99.99 -9.99
2019/04/16 19:24 EDT    3.29   2.88    6  230    9  66.6  63.3 1019.1 -9.9 -9.999 -99.9 -99.99 -9.99
2019/04/16 19:30 EDT    3.31   2.90    5  215    9  66.2  63.3 1019.1 -9.9 -9.999 -99.9 -99.99 -9.99
2019/04/16 19:36 EDT    3.33   2.91    4  222    6  65.8  63.3 1019.1 -9.9 -9.999 -99.9 -99.99 -9.99
2019/04/16 19:42 EDT    3.34   2.90    4  215    7  65.5  63.3 1019.1 -9.9 -9.999 -99.9 -99.99 -9.99
2019/04/16 19:48 EDT    3.35   2.90    5  222    7  65.3  63.3 1019.1 -9.9 -9.999 -99.9 -99.99 -9.99
2019/04/16 19:54 EDT    3.35   2.90    3  220    5  64.9  63.3 1019.2 -9.9 -9.999 -99.9 -99.99 -9.99
2019/04/16 20:00 EDT    3.35   2.88    3  220    5  64.6  63.3 1019.3 -9.9 -9.999 -99.9 -99.99 -9.99
2019/04/16 20:06 EDT    3.34   2.87    3  203    5  64.4  63.0 1019.3 -9.9 -9.999 -99.9 -99.99 -9.99
2019/04/16 20:12 EDT    3.33   2.85    2  204    4  64.0  63.0 1019.3 -9.9 -9.999 -99.9 -99.99 -9.99
2019/04/16 20:18 EDT    3.32   2.85    3  205    4  63.7  63.0 1019.3 -9.9 -9.999 -99.9 -99.99 -9.99
2019/04/16 20:24 EDT    3.30   2.83    2  216    4  63.5  63.0 1019.4 -9.9 -9.999 -99.9 -99.99 -9.99
2019/04/16 20:30 EDT    3.28   2.81    2  202    4  63.1  63.0 1019.4 -9.9 -9.999 -99.9 -99.99 -9.99
2019/04/16 20:36 EDT    3.25   2.78    2  210    3  63.0  63.0 1019.4 -9.9 -9.999 -99.9 -99.99 -9.99
2019/04/16 20:42 EDT    3.22   2.75    2  211    4  62.8  63.0 1019.4 -9.9 -9.999 -99.9 -99.99 -9.99
2019/04/16 20:48 EDT    3.19   2.71    2  192    3  62.6  63.1 1019.5 -9.9 -9.999 -99.9 -99.99 -9.99
2019/04/16 20:54 EDT    3.15   2.66    2  179    3  62.4  63.1 1019.6 -9.9 -9.999 -99.9 -99.99 -9.99
2019/04/16 21:00 EDT    3.11   2.62    2  163    3  62.4  63.1 1019.7 -9.9 -9.999 -99.9 -99.99 -9.99
2019/04/16 21:06 EDT    3.06   2.57    2  160    3  62.4  63.1 1019.7 -9.9 -9.999 -99.9 -99.99 -9.99
2019/04/16 21:12 EDT    3.02   2.52    3  188    4  62.2  63.1 1019.8 -9.9 -9.999 -99.9 -99.99 -9.99
2019/04/16 21:18 EDT    2.97   2.47    3  180    4  62.1  63.1 1019.8 -9.9 -9.999 -99.9 -99.99 -9.99
2019/04/16 21:24 EDT    2.91   2.39    3  159    4  62.2  63.1 1019.9 -9.9 -9.999 -99.9 -99.99 -9.99
2019/04/16 21:30 EDT    2.86   2.34    4  166    5  62.2  63.3 1019.9 -9.9 -9.999 -99.9 -99.99 -9.99
2019/04/16 21:36 EDT    2.80   2.29    4  171    6  62.4  63.1 1020.0 -9.9 -9.999 -99.9 -99.99 -9.99
2019/04/16 21:42 EDT    2.73   2.23    3  168    5  62.1  63.3 1019.9 -9.9 -9.999 -99.9 -99.99 -9.99
2019/04/16 21:48 EDT    2.67   2.17    3  155    4  61.5  63.3 1020.0 -9.9 -9.999 -99.9 -99.99 -9.99
2019/04/16 21:54 EDT    2.60   2.11    3  167    4  61.2  63.3 1019.9 -9.9 -9.999 -99.9 -99.99 -9.99
2019/04/16 22:00 EDT    2.53   2.05    3  176    4  61.2  63.3 1019.9 -9.9 -9.999 -99.9 -99.99 -9.99
2019/04/16 22:06 EDT    2.46   1.99    3  176    4  61.2  63.3 1019.9 -9.9 -9.999 -99.9 -99.99 -9.99
2019/04/16 22:12 EDT    2.39   1.91    3  172    4  61.0  63.3 1019.9 -9.9 -9.999 -99.9 -99.99 -9.99
2019/04/16 22:18 EDT    2.31   1.84    4  177    5  60.8  63.3 1019.8 -9.9 -9.999 -99.9 -99.99 -9.99
2019/04/16 22:24 EDT    2.23   1.76    3  190    5  60.4  63.3 1019.8 -9.9 -9.999 -99.9 -99.99 -9.99
2019/04/16 22:30 EDT    2.15   1.67    4  181    5  60.1  63.3 1019.9 -9.9 -9.999 -99.9 -99.99 -9.99
2019/04/16 22:36 EDT    2.07   1.58    4  198    6  59.7  63.5 1019.9 -9.9 -9.999 -99.9 -99.99 -9.99
2019/04/16 22:42 EDT    1.99   1.48    4  203    7  59.4  63.5 1019.8 -9.9 -9.999 -99.9 -99.99 -9.99
2019/04/16 22:48 EDT    1.91   1.40    5  208    7  59.2  63.5 1019.8 -9.9 -9.999 -99.9 -99.99 -9.99
2019/04/16 22:54 EDT    1.82   1.31    5  215    8  59.2  63.5 1019.8 -9.9 -9.999 -99.9 -99.99 -9.99
2019/04/16 23:00 EDT    1.74   1.21    5  218    8  59.0  63.7 1019.7 -9.9 -9.999 -99.9 -99.99 -9.99
2019/04/16 23:06 EDT    1.65   1.12    6  224    8  58.6  63.7 1019.7 -9.9 -9.999 -99.9 -99.99 -9.99
2019/04/16 23:12 EDT    1.56   1.03    5  220    9  58.5  63.7 1019.7 -9.9 -9.999 -99.9 -99.99 -9.99
2019/04/16 23:18 EDT    1.47   0.94    4  212    8  58.3  63.7 1019.7 -9.9 -9.999 -99.9 -99.99 -9.99
2019/04/16 23:24 EDT    1.39   0.85    4  209    8  57.9  63.9 1019.7 -9.9 -9.999 -99.9 -99.99 -9.99
2019/04/16 23:30 EDT    1.30   0.76    5  210    8  57.9  63.9 1019.7 -9.9 -9.999 -99.9 -99.99 -9.99
2019/04/16 23:36 EDT    1.21   0.65    6  203    7  57.9  63.9 1019.7 -9.9 -9.999 -99.9 -99.99 -9.99
2019/04/16 23:42 EDT    1.12   0.55    6  207   11  57.7  63.9 1019.7 -9.9 -9.999 -99.9 -99.99 -9.99
2019/04/16 23:48 EDT    1.03   0.46    5  216   10  57.7  63.9 1019.6 -9.9 -9.999 -99.9 -99.99 -9.99
2019/04/16 23:54 EDT    0.95   0.37    5  219    8  57.6  63.9 1019.6 -9.9 -9.999 -99.9 -99.99 -9.99
2019/04/17 00:00 EDT    0.86   0.29    6  217    8  57.4  64.0 1019.7 -9.9 -9.999 -99.9 -99.99 -9.99
2019/04/17 00:06 EDT    0.78   0.19    4  225    8  57.2  64.0 1019.6 -9.9 -9.999 -99.9 -99.99 -9.99
2019/04/17 00:12 EDT    0.70   0.11    6  220   10  57.0  64.0 1019.6 -9.9 -9.999 -99.9 -99.99 -9.99
2019/04/17 00:18 EDT    0.62   0.02    5  221    8  57.0  64.0 1019.6 -9.9 -9.999 -99.9 -99.99 -9.99
2019/04/17 00:24 EDT    0.54  -0.05    6  220    9  56.8  64.0 1019.6 -9.9 -9.999 -99.9 -99.99 -9.99
2019/04/17 00:30 EDT    0.47  -0.14    7  221   10  56.7  64.0 1019.6 -9.9 -9.999 -99.9 -99.99 -9.99
2019/04/17 00:36 EDT    0.40  -0.20    6  228   12  56.8  64.2 1019.5 -9.9 -9.999 -99.9 -99.99 -9.99
2019/04/17 00:42 EDT    0.33  -0.26    6  231   11  57.0  64.2 1019.6 -9.9 -9.999 -99.9 -99.99 -9.99
2019/04/17 00:48 EDT    0.26  -0.32    7  229   13  57.0  64.2 1019.5 -9.9 -9.999 -99.9 -99.99 -9.99
2019/04/17 00:54 EDT    0.20  -0.37    7  229   11  57.0  64.2 1019.4 -9.9 -9.999 -99.9 -99.99 -9.99
2019/04/17 01:00 EDT    0.15  -0.41    6  225   10  56.8  64.2 1019.4 -9.9 -9.999 -99.9 -99.99 -9.99
2019/04/17 01:06 EDT    0.09  -0.44    7  230   11  57.0  64.2 1019.4 -9.9 -9.999 -99.9 -99.99 -9.99
2019/04/17 01:12 EDT    0.04  -0.50    6  232   10  56.7  64.2 1019.4 -9.9 -9.999 -99.9 -99.99 -9.99
2019/04/17 01:18 EDT   -0.00  -0.55    7  229   10  56.7  64.2 1019.3 -9.9 -9.999 -99.9 -99.99 -9.99
2019/04/17 01:24 EDT   -0.04  -0.56    4  232    8  56.3  64.2 1019.2 -9.9 -9.999 -99.9 -99.99 -9.99
2019/04/17 01:30 EDT   -0.08  -0.60    5  228    8  56.3  64.2 1019.2 -9.9 -9.999 -99.9 -99.99 -9.99
2019/04/17 01:36 EDT   -0.11  -0.62    5  235    9  56.1  64.2 1019.1 -9.9 -9.999 -99.9 -99.99 -9.99
2019/04/17 01:42 EDT   -0.14  -0.63    5  231    7  56.1  64.2 1019.0 -9.9 -9.999 -99.9 -99.99 -9.99
2019/04/17 01:48 EDT   -0.16  -0.65    5  223    6  55.8  64.2 1018.9 -9.9 -9.999 -99.9 -99.99 -9.99
2019/04/17 01:54 EDT   -0.18  -0.65    3  224    5  55.8  64.2 1018.8 -9.9 -9.999 -99.9 -99.99 -9.99
2019/04/17 02:00 EDT   -0.19  -0.65    3  219    6  55.6  64.2 1018.7 -9.9 -9.999 -99.9 -99.99 -9.99
2019/04/17 02:06 EDT   -0.20  -0.65    4  219    5  55.2  64.2 1018.7 -9.9 -9.999 -99.9 -99.99 -9.99
2019/04/17 02:12 EDT   -0.20  -0.65    3  223    6  55.0  64.2 1018.6 -9.9 -9.999 -99.9 -99.99 -9.99
2019/04/17 02:18 EDT   -0.20  -0.64    3  213    5  54.9  64.2 1018.6 -9.9 -9.999 -99.9 -99.99 -9.99
2019/04/17 02:24 EDT   -0.19  -0.64    3  200    5  54.9  64.2 1018.5 -9.9 -9.999 -99.9 -99.99 -9.99
2019/04/17 02:30 EDT   -0.18  -0.65    3  192    5  54.7  64.2 1018.4 -9.9 -9.999 -99.9 -99.99 -9.99
2019/04/17 02:36 EDT   -0.17  -0.63    3  203    5  54.5  64.2 1018.4 -9.9 -9.999 -99.9 -99.99 -9.99
2019/04/17 02:42 EDT   -0.15  -0.62    2  199    5  54.5  64.2 1018.4 -9.9 -9.999 -99.9 -99.99 -9.99
2019/04/17 02:48 EDT   -0.12  -0.60    3  206    5  54.5  64.2 1018.3 -9.9 -9.999 -99.9 -99.99 -9.99
2019/04/17 02:54 EDT   -0.09  -0.60    3  217    5  54.3  64.2 1018.3 -9.9 -9.999 -99.9 -99.99 -9.99
2019/04/17 03:00 EDT   -0.06  -0.58    3  219    5  54.1  64.2 1018.3 -9.9 -9.999 -99.9 -99.99 -9.99
2019/04/17 03:06 EDT   -0.02  -0.55    2  218    4  54.1  64.2 1018.4 -9.9 -9.999 -99.9 -99.99 -9.99
2019/04/17 03:12 EDT    0.02  -0.52    3  220    5  54.1  64.2 1018.3 -9.9 -9.999 -99.9 -99.99 -9.99
2019/04/17 03:18 EDT    0.06  -0.48    3  193    4  54.1  64.2 1018.2 -9.9 -9.999 -99.9 -99.99 -9.99
2019/04/17 03:24 EDT    0.11  -0.45    2  194    3  54.1  64.0 1018.3 -9.9 -9.999 -99.9 -99.99 -9.99
2019/04/17 03:30 EDT    0.16  -0.40    2  194    4  54.1  64.0 1018.3 -9.9 -9.999 -99.9 -99.99 -9.99
2019/04/17 03:36 EDT    0.21  -0.36    2  201    3  54.3  64.0 1018.4 -9.9 -9.999 -99.9 -99.99 -9.99
2019/04/17 03:42 EDT    0.27  -0.32    3  191    5  54.1  64.0 1018.3 -9.9 -9.999 -99.9 -99.99 -9.99
2019/04/17 03:48 EDT    0.33  -0.27    3  173    4  54.1  64.0 1018.1 -9.9 -9.999 -99.9 -99.99 -9.99
2019/04/17 03:54 EDT    0.39  -0.22    3  178    5  54.0  64.0 1018.1 -9.9 -9.999 -99.9 -99.99 -9.99
2019/04/17 04:00 EDT    0.46  -0.16    3  173    5  53.8  64.0 1018.1 -9.9 -9.999 -99.9 -99.99 -9.99
2019/04/17 04:06 EDT    0.53  -0.10    3  182    5  53.8  64.0 1018.1 -9.9 -9.999 -99.9 -99.99 -9.99
2019/04/17 04:12 EDT    0.60  -0.04    3  173    5  53.8  64.0 1018.1 -9.9 -9.999 -99.9 -99.99 -9.99
2019/04/17 04:18 EDT    0.67   0.02    4  198    5  53.8  64.0 1018.1 -9.9 -9.999 -99.9 -99.99 -9.99
2019/04/17 04:24 EDT    0.75   0.09    3  192    5  54.0  64.0 1018.0 -9.9 -9.999 -99.9 -99.99 -9.99
2019/04/17 04:30 EDT    0.83   0.16    3  191    5  54.0  64.0 1017.9 -9.9 -9.999 -99.9 -99.99 -9.99
2019/04/17 04:36 EDT    0.91   0.25    3  187    5  54.0  64.0 1018.0 -9.9 -9.999 -99.9 -99.99 -9.99
2019/04/17 04:42 EDT    0.99   0.33    4  192    5  54.0  64.0 1017.9 -9.9 -9.999 -99.9 -99.99 -9.99
2019/04/17 04:48 EDT    1.07   0.42    4  201    5  54.0  64.0 1018.0 -9.9 -9.999 -99.9 -99.99 -9.99
2019/04/17 04:54 EDT    1.16   0.51    4  206    5  54.0  64.0 1017.8 -9.9 -9.999 -99.9 -99.99 -9.99
2019/04/17 05:00 EDT    1.25   0.61    2  217    6  54.1  64.0 1017.8 -9.9 -9.999 -99.9 -99.99 -9.99
2019/04/17 05:06 EDT    1.33   0.70    3  211    4  54.1  64.0 1017.9 -9.9 -9.999 -99.9 -99.99 -9.99
2019/04/17 05:12 EDT    1.42   0.80    1  199    4  54.1  64.0 1017.9 -9.9 -9.999 -99.9 -99.99 -9.99
2019/04/17 05:18 EDT    1.51   0.91    3  192    4  54.1  64.0 1017.9 -9.9 -9.999 -99.9 -99.99 -9.99
2019/04/17 05:24 EDT    1.60   0.99    2  197    4  54.1  64.0 1017.8 -9.9 -9.999 -99.9 -99.99 -9.99
2019/04/17 05:30 EDT    1.69   1.09    3  212    5  54.1  64.0 1017.9 -9.9 -9.999 -99.9 -99.99 -9.99
2019/04/17 05:36 EDT    1.78   1.19    3  224    4  54.3  63.9 1017.9 -9.9 -9.999 -99.9 -99.99 -9.99
2019/04/17 05:42 EDT    1.87   1.27    3  213    4  54.3  63.9 1017.9 -9.9 -9.999 -99.9 -99.99 -9.99
2019/04/17 05:48 EDT    1.96   1.36    2  229    5  54.5  63.9 1017.9 -9.9 -9.999 -99.9 -99.99 -9.99
2019/04/17 05:54 EDT    2.05   1.45    3  236    6  54.9  63.9 1017.9 -9.9 -9.999 -99.9 -99.99 -9.99
2019/04/17 06:00 EDT    2.13   1.54    4  239    6  55.2  63.7 1018.0 -9.9 -9.999 -99.9 -99.99 -9.99
2019/04/17 06:06 EDT    2.22   1.63    4  242    7  55.2  63.7 1018.0 -9.9 -9.999 -99.9 -99.99 -9.99
2019/04/17 06:12 EDT    2.31   1.71    3  241    5  55.2  63.5 1018.1 -9.9 -9.999 -99.9 -99.99 -9.99
2019/04/17 06:18 EDT    2.39   1.79    4  239    7  55.2  63.5 1018.0 -9.9 -9.999 -99.9 -99.99 -9.99
2019/04/17 06:24 EDT    2.47   1.87    4  231    7  55.0  63.3 1018.0 -9.9 -9.999 -99.9 -99.99 -9.99
2019/04/17 06:30 EDT    2.55   1.97    3  222    5  54.7  63.3 1018.0 -9.9 -9.999 -99.9 -99.99 -9.99
2019/04/17 06:36 EDT    2.63   2.05    3  230    5  54.7  63.3 1018.0 -9.9 -9.999 -99.9 -99.99 -9.99
2019/04/17 06:42 EDT    2.70   2.12    3  224    4  54.5  63.3 1018.0 -9.9 -9.999 -99.9 -99.99 -9.99
2019/04/17 06:48 EDT    2.77   2.19    2  210    4  54.3  63.3 1018.0 -9.9 -9.999 -99.9 -99.99 -9.99
2019/04/17 06:54 EDT    2.84   2.25    2  214    4  54.1  63.3 1018.0 -9.9 -9.999 -99.9 -99.99 -9.99
2019/04/17 07:00 EDT    2.90   2.33    3  229    4  54.1  63.1 1018.1 -9.9 -9.999 -99.9 -99.99 -9.99
2019/04/17 07:06 EDT    2.96   2.40    3  223    5  54.1  63.1 1018.2 -9.9 -9.999 -99.9 -99.99 -9.99
2019/04/17 07:12 EDT    3.02   2.46    3  217    5  54.1  63.0 1018.3 -9.9 -9.999 -99.9 -99.99 -9.99
2019/04/17 07:18 EDT    3.07   2.50    3  229    6  54.3  63.0 1018.4 -9.9 -9.999 -99.9 -99.99 -9.99
2019/04/17 07:24 EDT    3.12   2.55    4  243    7  54.7  63.0 1018.5 -9.9 -9.999 -99.9 -99.99 -9.99
2019/04/17 07:30 EDT    3.16   2.60    5  233    8  54.7  63.0 1018.6 -9.9 -9.999 -99.9 -99.99 -9.99
2019/04/17 07:36 EDT    3.20   2.62    4  245    7  55.0  63.0 1018.6 -9.9 -9.999 -99.9 -99.99 -9.99
2019/04/17 07:42 EDT    3.24   2.64    4  230    8  55.2  63.0 1018.6 -9.9 -9.999 -99.9 -99.99 -9.99
2019/04/17 07:48 EDT    3.27   2.68    3  243    6  55.6  63.0 1018.6 -9.9 -9.999 -99.9 -99.99 -9.99
2019/04/17 07:54 EDT    3.29   2.69    7  247    9  55.9  62.8 1018.6 -9.9 -9.999 -99.9 -99.99 -9.99
2019/04/17 08:00 EDT    3.31   2.73    5  247   10  56.1  62.8 1018.7 -9.9 -9.999 -99.9 -99.99 -9.99
2019/04/17 08:06 EDT    3.33   2.76    4  251    7  56.5  62.8 1018.7 -9.9 -9.999 -99.9 -99.99 -9.99
2019/04/17 08:12 EDT    3.34   2.77    6  265    9  56.8  62.8 1018.8 -9.9 -9.999 -99.9 -99.99 -9.99
2019/04/17 08:18 EDT    3.35   2.78    5  268    8  57.4  62.8 1018.8 -9.9 -9.999 -99.9 -99.99 -9.99
2019/04/17 08:24 EDT    3.35   2.79    7  265    9  57.9  62.8 1018.8 -9.9 -9.999 -99.9 -99.99 -9.99
2019/04/17 08:30 EDT    3.35   2.78    6  276    9  58.3  62.8 1018.8 -9.9 -9.999 -99.9 -99.99 -9.99
2019/04/17 08:36 EDT    3.34   2.77    6  266    9  58.6  62.6 1018.7 -9.9 -9.999 -99.9 -99.99 -9.99
2019/04/17 08:42 EDT    3.33   2.77    5  276    8  59.0  62.8 1018.7 -9.9 -9.999 -99.9 -99.99 -9.99
2019/04/17 08:48 EDT    3.31   2.76    6  281    9  59.4  62.8 1018.8 -9.9 -9.999 -99.9 -99.99 -9.99
2019/04/17 08:54 EDT    3.29   2.74    6  276   10  59.9  62.8 1018.7 -9.9 -9.999 -99.9 -99.99 -9.99
2019/04/17 09:00 EDT    3.27   2.72    5  271   10  60.4  62.8 1018.7 -9.9 -9.999 -99.9 -99.99 -9.99
2019/04/17 09:06 EDT    3.24   2.68    6  275   10  61.0  62.8 1018.7 -9.9 -9.999 -99.9 -99.99 -9.99
2019/04/17 09:12 EDT    3.21   2.66    4  262    9  61.7  62.8 1018.6 -9.9 -9.999 -99.9 -99.99 -9.99
2019/04/17 09:18 EDT    3.17   2.63    8  279   10  62.2  62.8 1018.5 -9.9 -9.999 -99.9 -99.99 -9.99
2019/04/17 09:24 EDT    3.14   2.59    4  277    7  62.8  62.8 1018.5 -9.9 -9.999 -99.9 -99.99 -9.99
2019/04/17 09:30 EDT    3.09   2.55    7  282   10  63.3  62.8 1018.4 -9.9 -9.999 -99.9 -99.99 -9.99
2019/04/17 09:36 EDT    3.05   2.50    6  273    8  63.7  62.8 1018.3 -9.9 -9.999 -99.9 -99.99 -9.99
2019/04/17 09:42 EDT    3.00   2.45    4  284    8  64.2  62.8 1018.2 -9.9 -9.999 -99.9 -99.99 -9.99
2019/04/17 09:48 EDT    2.95   2.41    4  284    5  64.6  62.8 1018.2 -9.9 -9.999 -99.9 -99.99 -9.99
2019/04/17 09:54 EDT    2.89   2.36    4  296    6  65.3  62.8 1018.2 -9.9 -9.999 -99.9 -99.99 -9.99
2019/04/17 10:00 EDT    2.84   2.30    5  285    6  65.3  62.8 1018.3 -9.9 -9.999 -99.9 -99.99 -9.99
2019/04/17 10:06 EDT    2.78   2.26    4  319    7  66.0  62.8 1018.4 -9.9 -9.999 -99.9 -99.99 -9.99
2019/04/17 10:12 EDT    2.71   2.21    5  282    6  66.2  62.8 1018.5 -9.9 -9.999 -99.9 -99.99 -9.99
2019/04/17 10:18 EDT    2.65   2.15    3  305    6  66.9  62.8 1018.4 -9.9 -9.999 -99.9 -99.99 -9.99
2019/04/17 10:24 EDT    2.58   2.08    5  294    6  67.3  62.8 1018.4 -9.9 -9.999 -99.9 -99.99 -9.99
2019/04/17 10:30 EDT    2.51   2.03    3  300    7  68.0  62.8 1018.3 -9.9 -9.999 -99.9 -99.99 -9.99
2019/04/17 10:36 EDT    2.44   1.99    2  315    5  68.5  62.8 1018.3 -9.9 -9.999 -99.9 -99.99 -9.99
2019/04/17 10:42 EDT    2.36   1.93    4  292    5  69.1  62.8 1018.3 -9.9 -9.999 -99.9 -99.99 -9.99
2019/04/17 10:48 EDT    2.29   1.87    2  292    4  69.1  62.8 1018.3 -9.9 -9.999 -99.9 -99.99 -9.99
2019/04/17 10:54 EDT    2.21   1.80    3  293    5  69.6  62.8 1018.2 -9.9 -9.999 -99.9 -99.99 -9.99
2019/04/17 11:00 EDT    2.13   1.73    1  287    4  70.0  62.8 1018.2 -9.9 -9.999 -99.9 -99.99 -9.99
2019/04/17 11:06 EDT    2.05   1.64    3  286    5  70.2  62.6 1018.2 -9.9 -9.999 -99.9 -99.99 -9.99
2019/04/17 11:12 EDT    1.97   1.58    3  321    4  70.7  62.6 1018.2 -9.9 -9.999 -99.9 -99.99 -9.99
2019/04/17 11:18 EDT    1.88   1.51    2  310    3  71.2  62.6 1018.1 -9.9 -9.999 -99.9 -99.99 -9.99
2019/04/17 11:24 EDT    1.80   1.43    2  276    4  71.4  62.8 1018.2 -9.9 -9.999 -99.9 -99.99 -9.99
2019/04/17 11:30 EDT    1.71   1.36    1  348    4  71.8  62.8 1018.3 -9.9 -9.999 -99.9 -99.99 -9.99
2019/04/17 11:36 EDT    1.62   1.28    2  252    3  72.1  62.8 1018.3 -9.9 -9.999 -99.9 -99.99 -9.99
2019/04/17 11:42 EDT    1.54   1.19    1  218    2  72.5  63.0 1018.2 -9.9 -9.999 -99.9 -99.99 -9.99
2019/04/17 11:48 EDT    1.45   1.11    2  222    2  72.5  63.0 1018.1 -9.9 -9.999 -99.9 -99.99 -9.99
2019/04/17 11:54 EDT    1.36   1.02    3  152    3  73.0  63.0 1018.0 -9.9 -9.999 -99.9 -99.99 -9.99
2019/04/17 12:00 EDT    1.27 -99.99    0  157    3  73.6  63.0 1018.0 -9.9 -9.999 -99.9 -99.99 -9.99
2019/04/17 12:06 EDT    1.18 -99.99    0  257    2  73.8  63.0 1018.0 -9.9 -9.999 -99.9 -99.99 -9.99
2019/04/17 12:12 EDT    1.10 -99.99    2  344    4  74.5  63.0 1017.9 -9.9 -9.999 -99.9 -99.99 -9.99
2019/04/17 12:18 EDT    1.01 -99.99    2  215    3  74.3  63.1 1017.9 -9.9 -9.999 -99.9 -99.99 -9.99
2019/04/17 12:24 EDT    0.93 -99.99    3  331    5  75.4  63.1 1017.9 -9.9 -9.999 -99.9 -99.99 -9.99
2019/04/17 12:30 EDT    0.84 -99.99    3   78    5  76.1  63.1 1017.9 -9.9 -9.999 -99.9 -99.99 -9.99
2019/04/17 12:36 EDT    0.76 -99.99    1   49    4  76.6  63.1 1017.8 -9.9 -9.999 -99.9 -99.99 -9.99
2019/04/17 12:42 EDT    0.68 -99.99    2   88    6  76.6  63.3 1017.8 -9.9 -9.999 -99.9 -99.99 -9.99
2019/04/17 12:48 EDT    0.60 -99.99    1  333    4  77.0  63.3 1017.8 -9.9 -9.999 -99.9 -99.99 -9.99
2019/04/17 12:54 EDT    0.53 -99.99    2   28    5  77.7  63.3 1017.7 -9.9 -9.999 -99.9 -99.99 -9.99
2019/04/17 13:00 EDT    0.46 -99.99    3  315    4  77.7  63.5 1017.7 -9.9 -9.999 -99.9 -99.99 -9.99
2019/04/17 13:06 EDT    0.39 -99.99    2  326    4  77.4  63.5 1017.7 -9.9 -9.999 -99.9 -99.99 -9.99
2019/04/17 13:12 EDT    0.32 -99.99    4  300    5  77.9  63.5 1017.6 -9.9 -9.999 -99.9 -99.99 -9.99
2019/04/17 13:18 EDT    0.26 -99.99    3   10    6  78.8  63.5 1017.6 -9.9 -9.999 -99.9 -99.99 -9.99
2019/04/17 13:24 EDT    0.20 -99.99    3  350    5  79.3  63.5 1017.5 -9.9 -9.999 -99.9 -99.99 -9.99
2019/04/17 13:30 EDT    0.14 -99.99    3   35    5  80.1  63.7 1017.4 -9.9 -9.999 -99.9 -99.99 -9.99
2019/04/17 13:36 EDT    0.09 -99.99    3   96    6  79.7  63.7 1017.4 -9.9 -9.999 -99.9 -99.99 -9.99
2019/04/17 13:42 EDT    0.05 -99.99    3   64    8  80.4  64.0 1017.4 -9.9 -9.999 -99.9 -99.99 -9.99
2019/04/17 13:48 EDT    0.00 -99.99    1  146    6  80.1  64.8 1017.4 -9.9 -9.999 -99.9 -99.99 -9.99
2019/04/17 13:54 EDT   -0.03 -99.99    4  100    7  80.6  64.8 1017.3 -9.9 -9.999 -99.9 -99.99 -9.99
2019/04/17 14:00 EDT   -0.07 -99.99    8   54   11  79.3  64.8 1017.4 -9.9 -9.999 -99.9 -99.99 -9.99
2019/04/17 14:06 EDT   -0.10 -99.99    7   46   11  78.3  64.8 1017.5 -9.9 -9.999 -99.9 -99.99 -9.99
2019/04/17 14:12 EDT   -0.12 -99.99    8   42   13  77.5  64.6 1017.5 -9.9 -9.999 -99.9 -99.99 -9.99
2019/04/17 14:18 EDT   -0.14 -99.99    8   37   12  77.0  64.8 1017.6 -9.9 -9.999 -99.9 -99.99 -9.99
2019/04/17 14:24 EDT   -0.15 -99.99    5   87    9  77.9  64.8 1017.6 -9.9 -9.999 -99.9 -99.99 -9.99
2019/04/17 14:30 EDT   -0.16 -99.99    3   83    8  77.5  64.8 1017.6 -9.9 -9.999 -99.9 -99.99 -9.99
2019/04/17 14:36 EDT   -0.17  -0.19    5   33   10  77.5  64.8 1017.6 -9.9 -9.999 -99.9 -99.99 -9.99
2019/04/17 14:42 EDT   -0.17  -0.17    4  102   10  78.1  64.8 1017.6 -9.9 -9.999 -99.9 -99.99 -9.99
2019/04/17 14:48 EDT   -0.16  -0.15    8  117   15  76.1  64.8 1017.6 -9.9 -9.999 -99.9 -99.99 -9.99
2019/04/17 14:54 EDT   -0.15  -0.14   10  122   13  75.2  64.9 1017.6 -9.9 -9.999 -99.9 -99.99 -9.99
2019/04/17 15:00 EDT   -0.13  -0.10   11  128   13  74.3  64.8 1017.7 -9.9 -9.999 -99.9 -99.99 -9.99
2019/04/17 15:06 EDT   -0.12  -0.09   11   99   14  74.7  64.8 1017.7 -9.9 -9.999 -99.9 -99.99 -9.99
2019/04/17 15:12 EDT   -0.09  -0.05    7  104   12  75.2  65.1 1017.6 -9.9 -9.999 -99.9 -99.99 -9.99
2019/04/17 15:18 EDT   -0.06   0.00    7  112   14  74.7  64.9 1017.5 -9.9 -9.999 -99.9 -99.99 -9.99
2019/04/17 15:24 EDT   -0.03   0.04    9  112   13  73.8  64.9 1017.6 -9.9 -9.999 -99.9 -99.99 -9.99
2019/04/17 15:30 EDT    0.01   0.07    9  108   15  73.4  64.9 1017.5 -9.9 -9.999 -99.9 -99.99 -9.99
2019/04/17 15:36 EDT    0.05   0.12    6  107   14  73.6  64.9 1017.6 -9.9 -9.999 -99.9 -99.99 -9.99
2019/04/17 15:42 EDT    0.09   0.14    8  106   12  72.5  64.9 1017.6 -9.9 -9.999 -99.9 -99.99 -9.99
2019/04/17 15:48 EDT    0.14   0.18    8  101   13  72.9  64.6 1017.6 -9.9 -9.999 -99.9 -99.99 -9.99
2019/04/17 15:54 EDT    0.19   0.26    9  103   13  72.3  64.2 1017.6 -9.9 -9.999 -99.9 -99.99 -9.99
2019/04/17 16:00 EDT    0.25   0.36    8   92   13  72.1  63.9 1017.5 -9.9 -9.999 -99.9 -99.99 -9.99
2019/04/17 16:06 EDT    0.31   0.39    7   91   13  72.1  63.9 1017.5 -9.9 -9.999 -99.9 -99.99 -9.99
2019/04/17 16:12 EDT    0.37   0.48    9  117   14  71.4  63.9 1017.5 -9.9 -9.999 -99.9 -99.99 -9.99
2019/04/17 16:18 EDT    0.43   0.51    7  111   11  71.4  63.9 1017.5 -9.9 -9.999 -99.9 -99.99 -9.99
2019/04/17 16:24 EDT    0.50   0.59    6   97   12  71.4  63.7 1017.5 -9.9 -9.999 -99.9 -99.99 -9.99
2019/04/17 16:30 EDT    0.57   0.69    7  107   12  70.7  63.7 1017.5 -9.9 -9.999 -99.9 -99.99 -9.99
2019/04/17 16:36 EDT    0.65   0.76    9  109   12  70.9  63.7 1017.4 -9.9 -9.999 -99.9 -99.99 -9.99
2019/04/17 16:42 EDT    0.72   0.84    9   95   13  70.9  63.7 1017.4 -9.9 -9.999 -99.9 -99.99 -9.99
2019/04/17 16:48 EDT    0.80   0.91    7   98   13  70.9  63.7 1017.3 -9.9 -9.999 -99.9 -99.99 -9.99
2019/04/17 16:54 EDT    0.88   0.99    3   66   12  70.9  63.7 1017.2 -9.9 -9.999 -99.9 -99.99 -9.99
2019/04/17 17:00 EDT    0.97   1.10    7  115   13  70.7  63.7 1017.2 -9.9 -9.999 -99.9 -99.99 -9.99
2019/04/17 17:06 EDT    1.05   1.19   10  118   14  70.2  63.7 1017.2 -9.9 -9.999 -99.9 -99.99 -9.99
2019/04/17 17:12 EDT    1.14   1.28    9  112   12  70.3  63.7 1017.1 -9.9 -9.999 -99.9 -99.99 -9.99
2019/04/17 17:18 EDT    1.23   1.39    9  103   13  70.3  63.7 1017.0 -9.9 -9.999 -99.9 -99.99 -9.99
2019/04/17 17:24 EDT    1.32   1.48    9  105   12  70.2  63.9 1017.0 -9.9 -9.999 -99.9 -99.99 -9.99
2019/04/17 17:30 EDT    1.41   1.61    8  112   12  70.0  63.9 1017.1 -9.9 -9.999 -99.9 -99.99 -9.99
2019/04/17 17:36 EDT    1.50   1.72    7  101   10  70.0  63.9 1017.2 -9.9 -9.999 -99.9 -99.99 -9.99
2019/04/17 17:42 EDT    1.60   1.84    8   97   11  70.2  63.9 1017.2 -9.9 -9.999 -99.9 -99.99 -9.99
2019/04/17 17:48 EDT    1.69   1.94    8  113   13  69.6  64.0 1017.2 -9.9 -9.999 -99.9 -99.99 -9.99
2019/04/17 17:54 EDT    1.78   2.05    8  114   10  69.6  64.2 1017.2 -9.9 -9.999 -99.9 -99.99 -9.99
2019/04/17 18:00 EDT    1.88   2.15    8  118   11  69.3  64.2 1017.2 -9.9 -9.999 -99.9 -99.99 -9.99
2019/04/17 18:06 EDT    1.97   2.25    8  120   10  69.4  64.2 1017.1 -9.9 -9.999 -99.9 -99.99 -9.99
2019/04/17 18:12 EDT    2.07   2.35    6  101   13  69.6  64.6 1017.1 -9.9 -9.999 -99.9 -99.99 -9.99
2019/04/17 18:18 EDT    2.16   2.45    7  113   10  69.4  64.6 1017.1 -9.9 -9.999 -99.9 -99.99 -9.99
2019/04/17 18:24 EDT    2.25   2.54    7  116   11  69.3  64.6 1017.2 -9.9 -9.999 -99.9 -99.99 -9.99
2019/04/17 18:30 EDT    2.35   2.64    6  112   10  69.1  64.6 1017.2 -9.9 -9.999 -99.9 -99.99 -9.99
2019/04/17 18:36 EDT    2.44   2.76    8   93   11  68.5  64.6 1017.1 -9.9 -9.999 -99.9 -99.99 -9.99
2019/04/17 18:42 EDT    2.52   2.86    7  100   10  68.0  64.6 1017.1 -9.9 -9.999 -99.9 -99.99 -9.99
2019/04/17 18:48 EDT    2.61   2.96    8   97   10  67.5  64.6 1017.1 -9.9 -9.999 -99.9 -99.99 -9.99
2019/04/17 18:54 EDT    2.69   3.05    6   97   11  66.9  64.6 1017.0 -9.9 -9.999 -99.9 -99.99 -9.99
2019/04/17 19:00 EDT    2.78   3.13    4  106   10  66.6  64.6 1017.1 -9.9 -9.999 -99.9 -99.99 -9.99
2019/04/17 19:06 EDT    2.85   3.22    5  113    9  66.0  64.4 1017.1 -9.9 -9.999 -99.9 -99.99 -9.99
2019/04/17 19:12 EDT    2.93   3.29    5  115    8  65.7  64.4 1017.1 -9.9 -9.999 -99.9 -99.99 -9.99
2019/04/17 19:18 EDT    3.00   3.36    6   96    9  65.3  64.4 1017.1 -9.9 -9.999 -99.9 -99.99 -9.99
2019/04/17 19:24 EDT    3.07   3.41    5   91    9  64.8  64.4 1017.2 -9.9 -9.999 -99.9 -99.99 -9.99
2019/04/17 19:30 EDT    3.13   3.38    5   95    8  64.4  64.4 1017.2 -9.9 -9.999 -99.9 -99.99 -9.99
2019/04/17 19:36 EDT    3.19   3.43    6   92    9  63.7  64.4 1017.2 -9.9 -9.999 -99.9 -99.99 -9.99
2019/04/17 19:42 EDT    3.25   3.48    6   97   10  63.0  64.4 1017.2 -9.9 -9.999 -99.9 -99.99 -9.99
2019/04/17 19:48 EDT    3.30   3.52    4  105    9  62.8  64.4 1017.3 -9.9 -9.999 -99.9 -99.99 -9.99
2019/04/17 19:54 EDT    3.35   3.55    5   97    9  62.4  64.4 1017.3 -9.9 -9.999 -99.9 -99.99 -9.99
2019/04/17 20:00 EDT    3.39   3.58    4  109    7  62.2  64.4 1017.4 -9.9 -9.999 -99.9 -99.99 -9.99
2019/04/17 20:06 EDT    3.43   3.62    6  104    8  62.1  64.4 1017.6 -9.9 -9.999 -99.9 -99.99 -9.99
2019/04/17 20:12 EDT    3.46   3.64    7  116   11  62.1  64.4 1017.7 -9.9 -9.999 -99.9 -99.99 -9.99
2019/04/17 20:18 EDT    3.49   3.67    6  118   11  61.7  64.4 1017.8 -9.9 -9.999 -99.9 -99.99 -9.99
2019/04/17 20:24 EDT    3.51   3.70    4  118    8  61.5  64.4 1017.9 -9.9 -9.999 -99.9 -99.99 -9.99
2019/04/17 20:30 EDT    3.53   3.72    8  132   11  61.0  64.4 1018.0 -9.9 -9.999 -99.9 -99.99 -9.99
2019/04/17 20:36 EDT    3.54   3.73    7  126    9  61.0  64.4 1018.0 -9.9 -9.999 -99.9 -99.99 -9.99
2019/04/17 20:42 EDT    3.55   3.74    6  125    9  60.8  64.4 1018.0 -9.9 -9.999 -99.9 -99.99 -9.99
2019/04/17 20:48 EDT    3.55   3.75    8  130   10  60.6  64.4 1018.1 -9.9 -9.999 -99.9 -99.99 -9.99
2019/04/17 20:54 EDT    3.55   3.75    5  105    9  60.6  64.4 1018.1 -9.9 -9.999 -99.9 -99.99 -9.99
2019/04/17 21:00 EDT    3.55   3.74    6   95    9  60.4  64.4 1018.2 -9.9 -9.999 -99.9 -99.99 -9.99
2019/04/17 21:06 EDT    3.54   3.74    6  116    9  60.4  64.4 1018.3 -9.9 -9.999 -99.9 -99.99 -9.99
2019/04/17 21:12 EDT    3.52   3.73    5  107    9  60.4  64.4 1018.4 -9.9 -9.999 -99.9 -99.99 -9.99
2019/04/17 21:18 EDT    3.50   3.72    4  101    8  60.3  64.4 1018.4 -9.9 -9.999 -99.9 -99.99 -9.99
2019/04/17 21:24 EDT    3.47   3.71    7  115   10  60.1  64.4 1018.5 -9.9 -9.999 -99.9 -99.99 -9.99
2019/04/17 21:30 EDT    3.45   3.69    5  114    9  59.9  64.4 1018.4 -9.9 -9.999 -99.9 -99.99 -9.99
2019/04/17 21:36 EDT    3.41   3.68    5  103    8  59.9  64.4 1018.4 -9.9 -9.999 -99.9 -99.99 -9.99
2019/04/17 21:42 EDT    3.38   3.66    8  116   12  59.9  64.4 1018.3 -9.9 -9.999 -99.9 -99.99 -9.99
2019/04/17 21:48 EDT    3.33   3.64    6  110   10  59.7  64.4 1018.4 -9.9 -9.999 -99.9 -99.99 -9.99
2019/04/17 21:54 EDT    3.29   3.61    5  112    9  59.7  64.2 1018.4 -9.9 -9.999 -99.9 -99.99 -9.99
2019/04/17 22:00 EDT    3.24   3.58    5  109    8  59.7  64.2 1018.4 -9.9 -9.999 -99.9 -99.99 -9.99
2019/04/17 22:06 EDT    3.19   3.54    7  103    9  59.5  64.2 1018.3 -9.9 -9.999 -99.9 -99.99 -9.99
2019/04/17 22:12 EDT    3.13   3.51    6  119   10  59.4  64.2 1018.4 -9.9 -9.999 -99.9 -99.99 -9.99
2019/04/17 22:18 EDT    3.08   3.46    6  123   10  59.4  64.2 1018.4 -9.9 -9.999 -99.9 -99.99 -9.99
2019/04/17 22:24 EDT    3.01   3.42    3  114    5  59.5  64.2 1018.4 -9.9 -9.999 -99.9 -99.99 -9.99
2019/04/17 22:30 EDT    2.95   3.36    4  121    6  59.4  64.2 1018.3 -9.9 -9.999 -99.9 -99.99 -9.99
2019/04/17 22:36 EDT    2.88   3.31    6  132    8  59.2  64.0 1018.3 -9.9 -9.999 -99.9 -99.99 -9.99
2019/04/17 22:42 EDT    2.81   3.26    6  140    9  59.2  64.0 1018.2 -9.9 -9.999 -99.9 -99.99 -9.99
2019/04/17 22:48 EDT    2.74   3.19    7  125    8  59.0  64.0 1018.2 -9.9 -9.999 -99.9 -99.99 -9.99
2019/04/17 22:54 EDT    2.66   3.14    6  137    8  59.0  64.0 1018.1 -9.9 -9.999 -99.9 -99.99 -9.99
2019/04/17 23:00 EDT    2.59   3.07    5  145    8  59.0  64.0 1018.1 -9.9 -9.999 -99.9 -99.99 -9.99
2019/04/17 23:06 EDT    2.51   3.01    5  124    7  59.0  64.0 1018.0 -9.9 -9.999 -99.9 -99.99 -9.99
2019/04/17 23:12 EDT    2.42   2.94    4  126    6  59.0  64.0 1018.0 -9.9 -9.999 -99.9 -99.99 -9.99
2019/04/17 23:18 EDT    2.34   2.86    5  121    7  59.0  63.9 1018.1 -9.9 -9.999 -99.9 -99.99 -9.99
2019/04/17 23:24 EDT    2.25   2.79    4  120    5  59.2  63.9 1018.1 -9.9 -9.999 -99.9 -99.99 -9.99
2019/04/17 23:30 EDT    2.16   2.71    4  121    5  59.2  63.9 1018.0 -9.9 -9.999 -99.9 -99.99 -9.99
2019/04/17 23:36 EDT    2.08   2.62    4  127    5  59.4  63.9 1018.0 -9.9 -9.999 -99.9 -99.99 -9.99
2019/04/17 23:42 EDT    1.98   2.51    4  139    5  59.4  63.9 1018.0 -9.9 -9.999 -99.9 -99.99 -9.99
2019/04/17 23:48 EDT    1.89   2.43    4  152    6  59.5  63.9 1018.0 -9.9 -9.999 -99.9 -99.99 -9.99
2019/04/17 23:54 EDT    1.80   2.34    5  145    7  59.5  63.9 1017.8 -9.9 -9.999 -99.9 -99.99 -9.99
2019/04/18 00:00 EDT    1.70   2.23    4  149    7  59.7  63.9 1017.8 -9.9 -9.999 -99.9 -99.99 -9.99
2019/04/18 00:06 EDT    1.61   2.15    6  145    7  59.7  63.9 1017.5 -9.9 -9.999 -99.9 -99.99 -9.99
2019/04/18 00:12 EDT    1.51   2.05    5  140    8  59.9  63.9 1017.4 -9.9 -9.999 -99.9 -99.99 -9.99
2019/04/18 00:18 EDT    1.42   1.96    5  142    7  59.9  63.9 1017.3 -9.9 -9.999 -99.9 -99.99 -9.99
2019/04/18 00:24 EDT    1.32   1.86    4  160    9  59.9  63.9 1017.3 -9.9 -9.999 -99.9 -99.99 -9.99
2019/04/18 00:30 EDT    1.23   1.77    4  149    6  60.1  63.9 1017.3 -9.9 -9.999 -99.9 -99.99 -9.99
2019/04/18 00:36 EDT    1.13   1.67    5  151    7  60.3  63.9 1017.3 -9.9 -9.999 -99.9 -99.99 -9.99
2019/04/18 00:42 EDT    1.04   1.58    4  148    6  60.3  63.9 1017.3 -9.9 -9.999 -99.9 -99.99 -9.99
2019/04/18 00:48 EDT    0.95   1.49    3  156    5  60.4  63.9 1017.4 -9.9 -9.999 -99.9 -99.99 -9.99
2019/04/18 00:54 EDT    0.85   1.39    4  160    7  60.6  63.9 1017.3 -9.9 -9.999 -99.9 -99.99 -9.99
2019/04/18 01:00 EDT    0.76   1.30    4  152    6  60.6  63.7 1017.3 -9.9 -9.999 -99.9 -99.99 -9.99
2019/04/18 01:06 EDT    0.68   1.21    4  151    6  60.6  63.7 1017.1 -9.9 -9.999 -99.9 -99.99 -9.99
2019/04/18 01:12 EDT    0.59   1.12    4  149    6  60.6  63.7 1017.0 -9.9 -9.999 -99.9 -99.99 -9.99
2019/04/18 01:18 EDT    0.51   1.03    4  158    6  60.6  63.7 1017.1 -9.9 -9.999 -99.9 -99.99 -9.99
2019/04/18 01:24 EDT    0.43   0.95    3  171    5  60.8  63.7 1017.2 -9.9 -9.999 -99.9 -99.99 -9.99
2019/04/18 01:30 EDT    0.35   0.87    4  160    5  60.8  63.7 1017.2 -9.9 -9.999 -99.9 -99.99 -9.99
2019/04/18 01:36 EDT    0.27   0.79    2  166    3  60.8  63.7 1017.2 -9.9 -9.999 -99.9 -99.99 -9.99
2019/04/18 01:42 EDT    0.20   0.71    2  153    4  60.8  63.7 1017.3 -9.9 -9.999 -99.9 -99.99 -9.99
2019/04/18 01:48 EDT    0.14   0.64    2  145    2  61.0  63.7 1017.3 -9.9 -9.999 -99.9 -99.99 -9.99
2019/04/18 01:54 EDT    0.07   0.58    2  152    3  61.0  63.7 1017.3 -9.9 -9.999 -99.9 -99.99 -9.99
2019/04/18 02:00 EDT    0.01   0.52    2  145    3  61.0  63.7 1017.2 -9.9 -9.999 -99.9 -99.99 -9.99
2019/04/18 02:06 EDT   -0.04   0.46    2  139    3  61.0  63.7 1017.2 -9.9 -9.999 -99.9 -99.99 -9.99
2019/04/18 02:12 EDT   -0.09   0.41    2  150    3  61.0  63.7 1017.2 -9.9 -9.999 -99.9 -99.99 -9.99
2019/04/18 02:18 EDT   -0.14   0.37    3  151    3  60.8  63.7 1017.2 -9.9 -9.999 -99.9 -99.99 -9.99
2019/04/18 02:24 EDT   -0.18   0.34    3  146    3  60.8  63.7 1017.1 -9.9 -9.999 -99.9 -99.99 -9.99
2019/04/18 02:30 EDT   -0.21   0.30    3  145    3  60.8  63.7 1017.0 -9.9 -9.999 -99.9 -99.99 -9.99
2019/04/18 02:36 EDT   -0.24   0.27    3  152    4  60.8  63.7 1017.0 -9.9 -9.999 -99.9 -99.99 -9.99
2019/04/18 02:42 EDT   -0.27   0.23    3  156    3  60.6  63.7 1017.0 -9.9 -9.999 -99.9 -99.99 -9.99
2019/04/18 02:48 EDT   -0.29   0.21    2  160    3  60.6  63.7 1017.0 -9.9 -9.999 -99.9 -99.99 -9.99
2019/04/18 02:54 EDT   -0.31   0.20    2  150    3  60.6  63.7 1017.0 -9.9 -9.999 -99.9 -99.99 -9.99
2019/04/18 03:00 EDT   -0.32   0.18    3  160    3  60.6  63.7 1017.0 -9.9 -9.999 -99.9 -99.99 -9.99
2019/04/18 03:06 EDT   -0.32 -99.99    3  153    3  60.6  63.7 1016.8 -9.9 -9.999 -99.9 -99.99 -9.99
2019/04/18 03:12 EDT   -0.32   0.17    3  151    3  60.6  63.7 1016.9 -9.9 -9.999 -99.9 -99.99 -9.99
2019/04/18 03:18 EDT   -0.32 -99.99    3  156    4  60.4  63.7 1016.8 -9.9 -9.999 -99.9 -99.99 -9.99
2019/04/18 03:24 EDT   -0.31   0.19    3  164    4  60.3  63.7 1016.7 -9.9 -9.999 -99.9 -99.99 -9.99
2019/04/18 03:30 EDT   -0.29   0.20    4  155    4  60.3  63.7 1016.7 -9.9 -9.999 -99.9 -99.99 -9.99
2019/04/18 03:36 EDT   -0.27   0.22    4  159    5  60.4  63.7 1016.6 -9.9 -9.999 -99.9 -99.99 -9.99
2019/04/18 03:42 EDT   -0.25   0.24    3  160    4  60.4  63.7 1016.6 -9.9 -9.999 -99.9 -99.99 -9.99
2019/04/18 03:48 EDT   -0.22   0.26    3  153    4  60.4  63.7 1016.6 -9.9 -9.999 -99.9 -99.99 -9.99
2019/04/18 03:54 EDT   -0.19   0.28    4  149    4  60.4  63.7 1016.6 -9.9 -9.999 -99.9 -99.99 -9.99
2019/04/18 04:00 EDT   -0.15   0.32    3  155    5  60.4  63.7 1016.5 -9.9 -9.999 -99.9 -99.99 -9.99
2019/04/18 04:06 EDT   -0.11   0.35    3  156    4  60.3  63.7 1016.3 -9.9 -9.999 -99.9 -99.99 -9.99
2019/04/18 04:12 EDT   -0.07   0.38    4  158    5  60.3  63.7 1016.3 -9.9 -9.999 -99.9 -99.99 -9.99
2019/04/18 04:18 EDT   -0.02   0.42    3  156    4  60.3  63.7 1016.4 -9.9 -9.999 -99.9 -99.99 -9.99
2019/04/18 04:24 EDT    0.04   0.46    3  159    4  60.3  63.7 1016.3 -9.9 -9.999 -99.9 -99.99 -9.99
2019/04/18 04:30 EDT    0.09   0.50    4  163    6  60.3  63.7 1016.2 -9.9 -9.999 -99.9 -99.99 -9.99
2019/04/18 04:36 EDT    0.15   0.55    4  164    5  60.3  63.7 1016.2 -9.9 -9.999 -99.9 -99.99 -9.99
2019/04/18 04:42 EDT    0.22   0.61    3  170    4  60.3  63.7 1016.2 -9.9 -9.999 -99.9 -99.99 -9.99
2019/04/18 04:48 EDT    0.28   0.67    2  167    3  60.3  63.7 1016.2 -9.9 -9.999 -99.9 -99.99 -9.99
2019/04/18 04:54 EDT    0.35   0.74    3  170    4  60.3  63.7 1016.2 -9.9 -9.999 -99.9 -99.99 -9.99
2019/04/18 05:00 EDT    0.43   0.80    3  171    4  60.3  63.7 1016.2 -9.9 -9.999 -99.9 -99.99 -9.99
2019/04/18 05:06 EDT    0.50   0.87    3  181    4  60.3  63.7 1016.2 -9.9 -9.999 -99.9 -99.99 -9.99
2019/04/18 05:12 EDT    0.58   0.95    2  184    4  60.3  63.7 1016.3 -9.9 -9.999 -99.9 -99.99 -9.99
2019/04/18 05:18 EDT    0.66   1.02    3  186    4  60.3  63.7 1016.2 -9.9 -9.999 -99.9 -99.99 -9.99
2019/04/18 05:24 EDT    0.74   1.10    3  199    5  60.3  63.7 1016.3 -9.9 -9.999 -99.9 -99.99 -9.99
2019/04/18 05:30 EDT    0.83   1.17    3  181    4  60.3  63.7 1016.3 -9.9 -9.999 -99.9 -99.99 -9.99
2019/04/18 05:36 EDT    0.92   1.24    3  186    4  60.3  63.7 1016.4 -9.9 -9.999 -99.9 -99.99 -9.99
2019/04/18 05:42 EDT    1.01   1.30    3  190    5  60.3  63.7 1016.4 -9.9 -9.999 -99.9 -99.99 -9.99
2019/04/18 05:48 EDT    1.10   1.39    3  180    5  60.3  63.7 1016.4 -9.9 -9.999 -99.9 -99.99 -9.99
2019/04/18 05:54 EDT    1.19   1.47    4  188    6  60.3  63.7 1016.5 -9.9 -9.999 -99.9 -99.99 -9.99
2019/04/18 06:00 EDT    1.28   1.56    3  178    6  60.3  63.7 1016.5 -9.9 -9.999 -99.9 -99.99 -9.99
2019/04/18 06:06 EDT    1.38   1.64    4  180    6  60.3  63.7 1016.6 -9.9 -9.999 -99.9 -99.99 -9.99
2019/04/18 06:12 EDT    1.47   1.74    4  168    5  60.3  63.7 1016.5 -9.9 -9.999 -99.9 -99.99 -9.99
2019/04/18 06:18 EDT    1.57   1.83    3  172    5  60.3  63.7 1016.5 -9.9 -9.999 -99.9 -99.99 -9.99
2019/04/18 06:24 EDT    1.66   1.92    3  171    5  60.3  63.7 1016.5 -9.9 -9.999 -99.9 -99.99 -9.99
2019/04/18 06:30 EDT    1.76   2.00    3  176    6  60.4  63.7 1016.5 -9.9 -9.999 -99.9 -99.99 -9.99
2019/04/18 06:36 EDT    1.85   2.09    4  179    6  60.4  63.7 1016.4 -9.9 -9.999 -99.9 -99.99 -9.99
2019/04/18 06:42 EDT    1.95   2.18    4  190    6  60.6  63.7 1016.6 -9.9 -9.999 -99.9 -99.99 -9.99
2019/04/18 06:48 EDT    2.04   2.26    4  181    6  60.6  63.7 1016.6 -9.9 -9.999 -99.9 -99.99 -9.99
2019/04/18 06:54 EDT    2.14   2.36    4  182    7  60.8  63.7 1016.8 -9.9 -9.999 -99.9 -99.99 -9.99
2019/04/18 07:00 EDT    2.23   2.44    4  178    6  60.8  63.7 1016.9 -9.9 -9.999 -99.9 -99.99 -9.99
2019/04/18 07:06 EDT    2.32   2.54    4  185    6  61.0  63.7 1016.7 -9.9 -9.999 -99.9 -99.99 -9.99
2019/04/18 07:12 EDT    2.41   2.64    4  177    7  61.2  63.7 1016.8 -9.9 -9.999 -99.9 -99.99 -9.99
2019/04/18 07:18 EDT    2.49   2.73    4  187    6  61.2  63.7 1016.9 -9.9 -9.999 -99.9 -99.99 -9.99
2019/04/18 07:24 EDT    2.57   2.81    4  183    7  61.3  63.7 1017.0 -9.9 -9.999 -99.9 -99.99 -9.99
2019/04/18 07:30 EDT    2.65   2.89    3  184    4  61.3  63.7 1017.1 -9.9 -9.999 -99.9 -99.99 -9.99
2019/04/18 07:36 EDT    2.73   2.97    5  190    8  61.7  63.7 1017.1 -9.9 -9.999 -99.9 -99.99 -9.99
2019/04/18 07:42 EDT    2.81   3.03    4  187    6  61.9  63.7 1017.2 -9.9 -9.999 -99.9 -99.99 -9.99
2019/04/18 07:48 EDT    2.88   3.10    5  186    8  62.2  63.7 1017.2 -9.9 -9.999 -99.9 -99.99 -9.99
2019/04/18 07:54 EDT    2.94   3.17    6  182    8  62.4  63.7 1017.2 -9.9 -9.999 -99.9 -99.99 -9.99
2019/04/18 08:00 EDT    3.00   3.22    5  198    9  62.6  63.7 1017.3 -9.9 -9.999 -99.9 -99.99 -9.99
2019/04/18 08:06 EDT    3.06   3.28    5  195    8  63.0  63.5 1017.2 -9.9 -9.999 -99.9 -99.99 -9.99
2019/04/18 08:12 EDT    3.12   3.34    5  187    7  63.3  63.5 1017.2 -9.9 -9.999 -99.9 -99.99 -9.99
2019/04/18 08:18 EDT    3.16   3.40    4  195    7  63.5  63.5 1017.3 -9.9 -9.999 -99.9 -99.99 -9.99
2019/04/18 08:24 EDT    3.21   3.44    3  204    7  63.5  63.5 1017.4 -9.9 -9.999 -99.9 -99.99 -9.99
2019/04/18 08:30 EDT    3.25   3.49    3  213    5  63.7  63.5 1017.5 -9.9 -9.999 -99.9 -99.99 -9.99
2019/04/18 08:36 EDT    3.28   3.53    4  220    7  63.9  63.5 1017.5 -9.9 -9.999 -99.9 -99.99 -9.99
2019/04/18 08:42 EDT    3.31   3.56    4  203    7  64.6  63.5 1017.5 -9.9 -9.999 -99.9 -99.99 -9.99
2019/04/18 08:48 EDT    3.34   3.59    5  222    7  64.9  63.3 1017.7 -9.9 -9.999 -99.9 -99.99 -9.99
2019/04/18 08:54 EDT    3.36   3.61    6  209    9  65.3  63.3 1017.7 -9.9 -9.999 -99.9 -99.99 -9.99
2019/04/18 09:00 EDT    3.37   3.63    6  205    9  65.7  63.3 1017.8 -9.9 -9.999 -99.9 -99.99 -9.99
2019/04/18 09:06 EDT    3.38   3.64    5  202    8  66.2  63.3 1017.7 -9.9 -9.999 -99.9 -99.99 -9.99
2019/04/18 09:12 EDT    3.39   3.64    6  198    8  66.6  63.3 1017.7 -9.9 -9.999 -99.9 -99.99 -9.99
2019/04/18 09:18 EDT    3.39   3.66    5  212    9  67.1  63.3 1017.8 -9.9 -9.999 -99.9 -99.99 -9.99
2019/04/18 09:24 EDT    3.38   3.67    5  209    8  67.6  63.3 1017.8 -9.9 -9.999 -99.9 -99.99 -9.99
2019/04/18 09:30 EDT    3.37   3.66    5  211    9  68.2  63.3 1017.8 -9.9 -9.999 -99.9 -99.99 -9.99
2019/04/18 09:36 EDT    3.36   3.65    5  224    8  68.9  63.3 1017.7 -9.9 -9.999 -99.9 -99.99 -9.99
2019/04/18 09:42 EDT    3.34   3.65    6  213    8  69.4  63.3 1017.7 -9.9 -9.999 -99.9 -99.99 -9.99
2019/04/18 09:48 EDT    3.32   3.64    6  200    8  69.8  63.3 1017.7 -9.9 -9.999 -99.9 -99.99 -9.99
2019/04/18 09:54 EDT    3.29   3.62    6  192   10  70.3  63.3 1017.7 -9.9 -9.999 -99.9 -99.99 -9.99
2019/04/18 10:00 EDT    3.26   3.60    7  219   11  70.9  63.3 1017.7 -9.9 -9.999 -99.9 -99.99 -9.99
2019/04/18 10:06 EDT    3.23   3.57    4  204   10  71.2  63.3 1017.6 -9.9 -9.999 -99.9 -99.99 -9.99
2019/04/18 10:12 EDT    3.19   3.55    5  191    8  71.6  63.3 1017.6 -9.9 -9.999 -99.9 -99.99 -9.99
2019/04/18 10:18 EDT    3.15   3.51    7  220   11  72.1  63.1 1017.5 -9.9 -9.999 -99.9 -99.99 -9.99
2019/04/18 10:24 EDT    3.10   3.47    6  188   10  72.5  63.0 1017.6 -9.9 -9.999 -99.9 -99.99 -9.99
2019/04/18 10:30 EDT    3.05   3.43    8  209   11  72.7  63.1 1017.6 -9.9 -9.999 -99.9 -99.99 -9.99
2019/04/18 10:36 EDT    3.00   3.38    8  190   11  73.4  63.1 1017.5 -9.9 -9.999 -99.9 -99.99 -9.99
2019/04/18 10:42 EDT    2.94   3.33    9  199   12  73.6  63.1 1017.4 -9.9 -9.999 -99.9 -99.99 -9.99
2019/04/18 10:48 EDT    2.88   3.26    8  194   11  74.3  63.1 1017.3 -9.9 -9.999 -99.9 -99.99 -9.99
2019/04/18 10:54 EDT    2.82   3.19    5  200   10  74.5  63.1 1017.3 -9.9 -9.999 -99.9 -99.99 -9.99
2019/04/18 11:00 EDT    2.76   3.14    8  193   12  74.7  63.3 1017.3 -9.9 -9.999 -99.9 -99.99 -9.99
2019/04/18 11:06 EDT    2.69   3.07    8  195   12  74.8  63.3 1017.3 -9.9 -9.999 -99.9 -99.99 -9.99
2019/04/18 11:12 EDT    2.62   3.00    7  179   12  75.0  63.3 1017.2 -9.9 -9.999 -99.9 -99.99 -9.99
2019/04/18 11:18 EDT    2.55   2.93    8  203   11  75.2  63.3 1017.3 -9.9 -9.999 -99.9 -99.99 -9.99
2019/04/18 11:24 EDT    2.47   2.86    7  211   12  75.2  63.3 1017.3 -9.9 -9.999 -99.9 -99.99 -9.99
2019/04/18 11:30 EDT    2.40   2.77    9  215   14  75.0  63.3 1017.2 -9.9 -9.999 -99.9 -99.99 -9.99
2019/04/18 11:36 EDT    2.32   2.68    8  193   13  75.6  63.3 1017.2 -9.9 -9.999 -99.9 -99.99 -9.99
2019/04/18 11:42 EDT    2.24   2.60    7  187   12  75.4  63.5 1017.1 -9.9 -9.999 -99.9 -99.99 -9.99
2019/04/18 11:48 EDT    2.15   2.52    5  201    9  75.9  63.5 1017.0 -9.9 -9.999 -99.9 -99.99 -9.99
2019/04/18 11:54 EDT    2.07   2.44    8  210   11  76.5  63.5 1017.0 -9.9 -9.999 -99.9 -99.99 -9.99
2019/04/18 12:00 EDT    1.98   2.34    9  208   13  76.3  63.5 1017.0 -9.9 -9.999 -99.9 -99.99 -9.99
2019/04/18 12:06 EDT    1.90   2.23    8  201   14  76.6  63.5 1016.9 -9.9 -9.999 -99.9 -99.99 -9.99
2019/04/18 12:12 EDT    1.81   2.14    7  194   12  76.8  63.7 1016.9 -9.9 -9.999 -99.9 -99.99 -9.99
2019/04/18 12:18 EDT    1.72   2.04    7  176   12  76.6  63.7 1016.8 -9.9 -9.999 -99.9 -99.99 -9.99
2019/04/18 12:24 EDT    1.63   1.95    5  198   14  76.5  63.7 1016.7 -9.9 -9.999 -99.9 -99.99 -9.99
2019/04/18 12:30 EDT    1.54   1.85    7  188   12  77.4  63.7 1016.7 -9.9 -9.999 -99.9 -99.99 -9.99
2019/04/18 12:36 EDT    1.45   1.76   10  207   13  76.8  64.2 1016.8 -9.9 -9.999 -99.9 -99.99 -9.99
2019/04/18 12:42 EDT    1.35   1.66    7  202   14  77.2  64.4 1016.9 -9.9 -9.999 -99.9 -99.99 -9.99
2019/04/18 12:48 EDT    1.26   1.58    9  189   16  77.7  64.4 1016.9 -9.9 -9.999 -99.9 -99.99 -9.99
2019/04/18 12:54 EDT    1.17   1.49    9  182   15  77.4  64.4 1016.9 -9.9 -9.999 -99.9 -99.99 -9.99
2019/04/18 13:00 EDT    1.08   1.39   10  231   13  77.9  64.2 1016.9 -9.9 -9.999 -99.9 -99.99 -9.99
2019/04/18 13:06 EDT    0.99   1.31 -999 -999 -999 -99.9 -99.9 -999.9 -9.9 -9.999 -99.9 -99.99 -9.99

Revised: 08/08/2018
NOAA / National Ocean Service
Web site owner: Center for Operational Oceanographic Products and Services